Time,TemperatureF,DewpointF,PressureIn,WindDirection,WindDirectionDegrees,WindSpeedMPH,WindSpeedGustMPH,Humidity,HourlyPrecipIn,Conditions,Clouds,dailyrainin,SoftwareType,DateUTC
2013-02-21 00:00:00,26.1,-10.5,29.82,SSW,202,0.9,6.3,19,0.00,,,0.00,VWS V14.01,2013-02-21 05:00:00,
2013-02-21 00:05:00,26.1,-10.5,29.82,SSW,202,1.1,2.9,19,0.00,,,0.00,VWS V14.01,2013-02-21 05:05:00,
2013-02-21 00:10:00,26.1,-10.5,29.82,SSW,202,2.2,3.8,19,0.00,,,0.00,VWS V14.01,2013-02-21 05:10:00,
2013-02-21 00:15:00,25.9,-10.7,29.82,SSW,202,0.9,2.9,19,0.00,,,0.00,VWS V14.01,2013-02-21 05:15:00,
2013-02-21 00:20:00,25.9,-10.7,29.82,SSW,202,3.6,3.8,19,0.00,,,0.00,VWS V14.01,2013-02-21 05:20:00,
2013-02-21 00:25:00,25.9,-10.7,29.85,SSW,202,3.6,3.6,19,0.00,,,0.00,VWS V14.01,2013-02-21 05:25:00,
2013-02-21 00:30:00,25.9,-10.7,29.85,SW,225,1.6,3.6,19,0.00,,,0.00,VWS V14.01,2013-02-21 05:30:00,
2013-02-21 00:35:00,25.9,-10.7,29.85,SW,225,4.0,5.4,19,0.00,,,0.00,VWS V14.01,2013-02-21 05:35:00,
2013-02-21 00:36:00,25.9,-10.7,29.85,SW,225,3.6,3.8,19,0.00,,,0.00,VWS V14.01,2013-02-21 05:36:00,
2013-02-21 00:40:00,25.7,-10.9,29.85,SW,225,0.9,1.3,19,0.00,,,0.00,VWS V14.01,2013-02-21 05:40:00,
2013-02-21 00:41:00,25.7,-10.9,29.85,SW,225,1.3,1.3,19,0.00,,,0.00,VWS V14.01,2013-02-21 05:41:00,
2013-02-21 00:45:00,25.7,-10.9,29.85,SW,225,2.5,2.5,19,0.00,,,0.00,VWS V14.01,2013-02-21 05:45:00,
2013-02-21 00:46:00,25.7,-10.9,29.85,SW,225,2.5,2.5,19,0.00,,,0.00,VWS V14.01,2013-02-21 05:46:00,
2013-02-21 00:50:00,25.7,-10.9,29.85,WSW,248,10.3,10.3,19,0.00,,,0.00,VWS V14.01,2013-02-21 05:50:00,
2013-02-21 00:51:00,25.7,-10.9,29.85,WSW,248,10.3,10.3,19,0.00,,,0.00,VWS V14.01,2013-02-21 05:51:00,
2013-02-21 00:55:00,25.7,-10.9,29.85,SSW,202,0.0,0.0,19,0.00,,,0.00,VWS V14.01,2013-02-21 05:55:00,
2013-02-21 00:56:00,25.7,-10.9,29.85,West,270,4.3,9.8,19,0.00,,,0.00,VWS V14.01,2013-02-21 05:56:00,
2013-02-21 01:01:00,25.7,-10.9,29.85,SW,225,2.7,2.7,19,0.00,,,0.00,VWS V14.01,2013-02-21 06:01:00,
2013-02-21 01:02:00,25.7,-10.9,29.85,SW,225,1.1,1.3,19,0.00,,,0.00,VWS V14.01,2013-02-21 06:02:00,
2013-02-21 01:06:00,25.7,-10.9,29.85,SW,225,2.9,3.1,19,0.00,,,0.00,VWS V14.01,2013-02-21 06:06:00,
2013-02-21 01:07:00,25.7,-10.9,29.85,SW,225,0.9,1.3,19,0.00,,,0.00,VWS V14.01,2013-02-21 06:07:00,
2013-02-21 01:11:00,25.5,-11.0,29.85,SW,225,1.6,6.3,19,0.00,,,0.00,VWS V14.01,2013-02-21 06:11:00,
2013-02-21 01:12:00,25.5,-11.0,29.85,SW,225,1.3,1.3,19,0.00,,,0.00,VWS V14.01,2013-02-21 06:12:00,
2013-02-21 01:16:00,25.5,-11.0,29.85,SW,225,3.8,3.8,19,0.00,,,0.00,VWS V14.01,2013-02-21 06:16:00,
2013-02-21 01:17:00,25.5,-11.0,29.85,SW,225,4.3,4.3,19,0.00,,,0.00,VWS V14.01,2013-02-21 06:17:00,
2013-02-21 01:21:00,25.3,-11.1,29.85,SW,225,2.5,4.3,19,0.00,,,0.00,VWS V14.01,2013-02-21 06:21:00,
2013-02-21 01:22:00,25.3,-11.1,29.85,SW,225,0.9,2.5,19,0.00,,,0.00,VWS V14.01,2013-02-21 06:22:00,
2013-02-21 01:26:00,25.3,-11.1,29.85,SW,225,0.9,4.0,19,0.00,,,0.00,VWS V14.01,2013-02-21 06:26:00,
2013-02-21 01:27:00,25.3,-11.1,29.85,SW,225,2.0,2.0,19,0.00,,,0.00,VWS V14.01,2013-02-21 06:27:00,
2013-02-21 01:31:00,25.3,-11.1,29.85,SW,225,1.3,4.0,19,0.00,,,0.00,VWS V14.01,2013-02-21 06:31:00,
2013-02-21 01:32:00,25.3,-11.1,29.85,SW,225,2.7,2.7,19,0.00,,,0.00,VWS V14.01,2013-02-21 06:32:00,
2013-02-21 01:36:00,25.2,-11.3,29.85,SW,225,2.2,2.5,19,0.00,,,0.00,VWS V14.01,2013-02-21 06:36:00,
2013-02-21 01:37:00,25.2,-11.3,29.85,SW,225,1.6,3.8,19,0.00,,,0.00,VWS V14.01,2013-02-21 06:37:00,
2013-02-21 01:41:00,25.2,-11.3,29.85,SW,225,3.1,3.1,19,0.00,,,0.00,VWS V14.01,2013-02-21 06:41:00,
2013-02-21 01:42:00,25.2,-11.3,29.85,SW,225,2.2,3.1,19,0.00,,,0.00,VWS V14.01,2013-02-21 06:42:00,
2013-02-21 01:43:00,25.2,-11.3,29.85,SW,225,1.3,1.3,19,0.00,,,0.00,VWS V14.01,2013-02-21 06:43:00,
2013-02-21 01:46:00,25.0,-11.4,29.85,SW,225,2.2,2.2,19,0.00,,,0.00,VWS V14.01,2013-02-21 06:46:00,
2013-02-21 01:47:00,25.0,-11.4,29.85,SW,225,2.5,2.5,19,0.00,,,0.00,VWS V14.01,2013-02-21 06:47:00,
2013-02-21 01:48:00,25.0,-11.4,29.85,SW,225,2.7,3.6,19,0.00,,,0.00,VWS V14.01,2013-02-21 06:48:00,
2013-02-21 01:52:00,25.0,-11.4,29.85,SW,225,0.0,4.0,19,0.00,,,0.00,VWS V14.01,2013-02-21 06:52:00,
2013-02-21 01:53:00,25.0,-11.4,29.85,SW,225,1.1,2.7,19,0.00,,,0.00,VWS V14.01,2013-02-21 06:53:00,
2013-02-21 01:57:00,24.8,-11.6,29.82,SW,225,5.8,5.8,19,0.00,,,0.00,VWS V14.01,2013-02-21 06:57:00,
2013-02-21 01:58:00,24.8,-11.6,29.82,SW,225,1.1,3.1,19,0.00,,,0.00,VWS V14.01,2013-02-21 06:58:00,
2013-02-21 02:02:00,25.0,-11.4,29.82,SW,225,1.3,1.6,19,0.00,,,0.00,VWS V14.01,2013-02-21 07:02:00,
2013-02-21 02:03:00,24.8,-11.6,29.82,SW,225,3.1,4.3,19,0.00,,,0.00,VWS V14.01,2013-02-21 07:03:00,
2013-02-21 02:07:00,24.8,-11.6,29.82,SW,225,2.9,3.4,19,0.00,,,0.00,VWS V14.01,2013-02-21 07:07:00,
2013-02-21 02:08:00,24.8,-11.6,29.82,SW,225,3.8,3.8,19,0.00,,,0.00,VWS V14.01,2013-02-21 07:08:00,
2013-02-21 02:12:00,24.6,-11.8,29.82,SW,225,1.3,4.0,19,0.00,,,0.00,VWS V14.01,2013-02-21 07:12:00,
2013-02-21 02:13:00,24.6,-11.8,29.82,SW,225,4.3,4.3,19,0.00,,,0.00,VWS V14.01,2013-02-21 07:13:00,
2013-02-21 02:17:00,24.6,-11.8,29.82,SW,225,3.1,3.8,19,0.00,,,0.00,VWS V14.01,2013-02-21 07:17:00,
2013-02-21 02:18:00,24.6,-11.8,29.82,SW,225,0.9,3.1,19,0.00,,,0.00,VWS V14.01,2013-02-21 07:18:00,
2013-02-21 02:22:00,24.6,-11.8,29.82,SW,225,1.3,3.4,19,0.00,,,0.00,VWS V14.01,2013-02-21 07:22:00,
2013-02-21 02:23:00,24.6,-11.8,29.82,SW,225,2.0,2.0,19,0.00,,,0.00,VWS V14.01,2013-02-21 07:23:00,
2013-02-21 02:27:00,24.4,-11.9,29.82,SW,225,0.0,2.7,19,0.00,,,0.00,VWS V14.01,2013-02-21 07:27:00,
2013-02-21 02:28:00,24.4,-11.9,29.82,SW,225,3.6,3.6,19,0.00,,,0.00,VWS V14.01,2013-02-21 07:28:00,
2013-02-21 02:29:00,24.4,-11.9,29.82,SW,225,0.9,2.0,19,0.00,,,0.00,VWS V14.01,2013-02-21 07:29:00,
2013-02-21 02:33:00,24.4,-11.9,29.82,SW,225,2.5,2.5,19,0.00,,,0.00,VWS V14.01,2013-02-21 07:33:00,
2013-02-21 02:34:00,24.4,-11.9,29.82,SW,225,0.9,2.0,19,0.00,,,0.00,VWS V14.01,2013-02-21 07:34:00,
2013-02-21 02:38:00,24.4,-11.9,29.82,SW,225,1.6,1.6,19,0.00,,,0.00,VWS V14.01,2013-02-21 07:38:00,
2013-02-21 02:39:00,24.4,-11.9,29.82,SW,225,0.9,4.3,19,0.00,,,0.00,VWS V14.01,2013-02-21 07:39:00,
2013-02-21 02:43:00,24.3,-12.1,29.82,SW,225,0.0,3.4,19,0.00,,,0.00,VWS V14.01,2013-02-21 07:43:00,
2013-02-21 02:44:00,24.3,-12.1,29.82,SW,225,2.5,2.5,19,0.00,,,0.00,VWS V14.01,2013-02-21 07:44:00,
2013-02-21 02:48:00,24.3,-12.1,29.82,SW,225,0.9,3.4,19,0.00,,,0.00,VWS V14.01,2013-02-21 07:48:00,
2013-02-21 02:49:00,24.3,-12.1,29.82,SW,225,2.9,2.9,19,0.00,,,0.00,VWS V14.01,2013-02-21 07:49:00,
2013-02-21 02:53:00,24.3,-12.1,29.82,SW,225,0.9,2.0,19,0.00,,,0.00,VWS V14.01,2013-02-21 07:53:00,
2013-02-21 02:54:00,24.3,-12.1,29.82,SW,225,2.5,2.5,19,0.00,,,0.00,VWS V14.01,2013-02-21 07:54:00,
2013-02-21 02:58:00,24.3,-12.1,29.82,SW,225,1.3,1.6,19,0.00,,,0.00,VWS V14.01,2013-02-21 07:58:00,
2013-02-21 02:59:00,24.3,-12.1,29.82,SW,225,1.1,1.1,19,0.00,,,0.00,VWS V14.01,2013-02-21 07:59:00,
2013-02-21 03:00:00,24.3,-12.1,29.82,SW,225,1.6,1.6,19,0.00,,,0.00,VWS V14.01,2013-02-21 08:00:00,
2013-02-21 03:03:00,24.1,-12.2,29.82,SW,225,1.1,1.3,19,0.00,,,0.00,VWS V14.01,2013-02-21 08:03:00,
2013-02-21 03:04:00,24.3,-12.1,29.82,SW,225,3.8,3.8,19,0.00,,,0.00,VWS V14.01,2013-02-21 08:04:00,
2013-02-21 03:05:00,24.1,-12.2,29.82,SW,225,8.5,8.5,19,0.00,,,0.00,VWS V14.01,2013-02-21 08:05:00,
2013-02-21 03:08:00,24.3,-12.1,29.82,SW,225,0.9,3.4,19,0.00,,,0.00,VWS V14.01,2013-02-21 08:08:00,
2013-02-21 03:09:00,24.3,-12.1,29.82,SW,225,2.5,2.9,19,0.00,,,0.00,VWS V14.01,2013-02-21 08:09:00,
2013-02-21 03:10:00,24.3,-12.1,29.82,SW,225,2.2,2.2,19,0.00,,,0.00,VWS V14.01,2013-02-21 08:10:00,
2013-02-21 03:13:00,24.1,-12.2,29.82,SW,225,2.5,3.4,19,0.00,,,0.00,VWS V14.01,2013-02-21 08:13:00,
2013-02-21 03:14:00,24.1,-12.2,29.82,SW,225,1.3,2.7,19,0.00,,,0.00,VWS V14.01,2013-02-21 08:14:00,
2013-02-21 03:15:00,24.1,-12.2,29.82,SW,225,3.8,3.8,19,0.00,,,0.00,VWS V14.01,2013-02-21 08:15:00,
2013-02-21 03:18:00,24.1,-12.2,29.82,SW,225,3.6,3.6,19,0.00,,,0.00,VWS V14.01,2013-02-21 08:18:00,
2013-02-21 03:19:00,24.1,-12.2,29.82,SW,225,1.3,2.7,19,0.00,,,0.00,VWS V14.01,2013-02-21 08:19:00,
2013-02-21 03:20:00,24.1,-12.2,29.82,SW,225,0.9,0.9,19,0.00,,,0.00,VWS V14.01,2013-02-21 08:20:00,
2013-02-21 03:23:00,23.9,-12.4,29.82,SW,225,3.6,3.6,19,0.00,,,0.00,VWS V14.01,2013-02-21 08:23:00,
2013-02-21 03:24:00,24.1,-12.2,29.79,SW,225,0.9,3.4,19,0.00,,,0.00,VWS V14.01,2013-02-21 08:24:00,
2013-02-21 03:25:00,24.1,-12.2,29.79,SW,225,1.3,1.3,19,0.00,,,0.00,VWS V14.01,2013-02-21 08:25:00,
2013-02-21 03:28:00,24.1,-12.2,29.79,SW,225,2.7,3.1,19,0.00,,,0.00,VWS V14.01,2013-02-21 08:28:00,
2013-02-21 03:29:00,24.1,-12.2,29.79,SW,225,1.6,3.6,19,0.00,,,0.00,VWS V14.01,2013-02-21 08:29:00,
2013-02-21 03:30:00,24.1,-12.2,29.79,SW,225,2.0,2.2,19,0.00,,,0.00,VWS V14.01,2013-02-21 08:30:00,
2013-02-21 03:33:00,24.1,-12.2,29.79,SW,225,2.9,5.8,19,0.00,,,0.00,VWS V14.01,2013-02-21 08:33:00,
2013-02-21 03:34:00,24.1,-12.2,29.79,SW,225,1.1,1.1,19,0.00,,,0.00,VWS V14.01,2013-02-21 08:34:00,
2013-02-21 03:35:00,24.1,-12.2,29.79,SW,225,1.1,1.1,19,0.00,,,0.00,VWS V14.01,2013-02-21 08:35:00,
2013-02-21 03:38:00,24.1,-12.2,29.79,SW,225,2.7,2.7,19,0.00,,,0.00,VWS V14.01,2013-02-21 08:38:00,
2013-02-21 03:39:00,24.1,-12.2,29.79,SW,225,2.5,3.8,19,0.00,,,0.00,VWS V14.01,2013-02-21 08:39:00,
2013-02-21 03:40:00,24.1,-12.2,29.79,SW,225,1.6,2.5,19,0.00,,,0.00,VWS V14.01,2013-02-21 08:40:00,
2013-02-21 03:43:00,24.1,-12.2,29.79,SW,225,2.9,3.1,19,0.00,,,0.00,VWS V14.01,2013-02-21 08:43:00,
2013-02-21 03:44:00,24.1,-12.2,29.79,SW,225,3.1,3.1,19,0.00,,,0.00,VWS V14.01,2013-02-21 08:44:00,
2013-02-21 03:45:00,24.1,-12.2,29.79,SW,225,3.4,3.4,19,0.00,,,0.00,VWS V14.01,2013-02-21 08:45:00,
2013-02-21 03:48:00,24.1,-12.2,29.79,SW,225,2.7,2.7,19,0.00,,,0.00,VWS V14.01,2013-02-21 08:48:00,
2013-02-21 03:49:00,24.1,-12.2,29.79,SW,225,3.1,3.1,19,0.00,,,0.00,VWS V14.01,2013-02-21 08:49:00,
2013-02-21 03:51:00,24.1,-12.2,29.79,SW,225,2.7,2.7,19,0.00,,,0.00,VWS V14.01,2013-02-21 08:51:00,
2013-02-21 03:53:00,24.1,-12.2,29.79,SW,225,1.3,4.0,19,0.00,,,0.00,VWS V14.01,2013-02-21 08:53:00,
2013-02-21 03:54:00,24.1,-12.2,29.82,SW,225,3.1,4.0,19,0.00,,,0.00,VWS V14.01,2013-02-21 08:54:00,
2013-02-21 03:56:00,24.1,-12.2,29.82,SW,225,1.1,2.2,19,0.00,,,0.00,VWS V14.01,2013-02-21 08:56:00,
2013-02-21 03:58:00,24.1,-9.2,29.82,SW,225,2.0,2.0,22,0.00,,,0.00,VWS V14.01,2013-02-21 08:58:00,
2013-02-21 03:59:00,23.9,-12.4,29.82,SW,225,1.6,1.6,19,0.00,,,0.00,VWS V14.01,2013-02-21 08:59:00,
2013-02-21 04:01:00,23.9,-9.4,29.82,SW,225,2.0,3.1,22,0.00,,,0.00,VWS V14.01,2013-02-21 09:01:00,
2013-02-21 04:03:00,23.9,-12.4,29.82,SW,225,1.3,1.6,19,0.00,,,0.00,VWS V14.01,2013-02-21 09:03:00,
2013-02-21 04:05:00,23.9,-12.4,29.82,SW,225,4.9,8.5,19,0.00,,,0.00,VWS V14.01,2013-02-21 09:05:00,
2013-02-21 04:06:00,23.9,-12.4,29.82,SW,225,4.0,6.0,19,0.00,,,0.00,VWS V14.01,2013-02-21 09:06:00,
2013-02-21 04:09:00,23.9,-12.4,29.82,SW,225,1.3,4.9,19,0.00,,,0.00,VWS V14.01,2013-02-21 09:09:00,
2013-02-21 04:10:00,23.9,-12.4,29.79,SW,225,2.9,3.1,19,0.00,,,0.00,VWS V14.01,2013-02-21 09:10:00,
2013-02-21 04:11:00,24.1,-9.2,29.79,SW,225,4.3,8.7,22,0.00,,,0.00,VWS V14.01,2013-02-21 09:11:00,
2013-02-21 04:14:00,23.9,-9.4,29.79,SW,225,2.0,3.8,22,0.00,,,0.00,VWS V14.01,2013-02-21 09:14:00,
2013-02-21 04:15:00,24.1,-9.2,29.79,SW,225,3.1,3.1,22,0.00,,,0.00,VWS V14.01,2013-02-21 09:15:00,
2013-02-21 04:16:00,24.1,-9.2,29.79,SW,225,0.9,2.2,22,0.00,,,0.00,VWS V14.01,2013-02-21 09:16:00,
2013-02-21 04:19:00,24.1,-9.2,29.79,SW,225,1.1,2.9,22,0.00,,,0.00,VWS V14.01,2013-02-21 09:19:00,
2013-02-21 04:20:00,24.1,-9.2,29.79,SW,225,1.6,3.4,22,0.00,,,0.00,VWS V14.01,2013-02-21 09:20:00,
2013-02-21 04:21:00,24.3,-9.1,29.79,SW,225,4.3,4.3,22,0.00,,,0.00,VWS V14.01,2013-02-21 09:21:00,
2013-02-21 04:24:00,24.3,-9.1,29.82,SW,225,1.1,3.1,22,0.00,,,0.00,VWS V14.01,2013-02-21 09:24:00,
2013-02-21 04:25:00,24.3,-9.1,29.82,SW,225,1.1,4.9,22,0.00,,,0.00,VWS V14.01,2013-02-21 09:25:00,
2013-02-21 04:26:00,24.3,-9.1,29.82,SW,225,0.9,2.0,22,0.00,,,0.00,VWS V14.01,2013-02-21 09:26:00,
2013-02-21 04:29:00,24.3,-9.1,29.82,SW,225,4.3,4.3,22,0.00,,,0.00,VWS V14.01,2013-02-21 09:29:00,
2013-02-21 04:30:00,24.3,-9.1,29.82,SW,225,1.1,3.8,22,0.00,,,0.00,VWS V14.01,2013-02-21 09:30:00,
2013-02-21 04:31:00,24.3,-9.1,29.82,SW,225,3.4,3.4,22,0.00,,,0.00,VWS V14.01,2013-02-21 09:31:00,
2013-02-21 04:34:00,24.3,-9.1,29.82,SW,225,2.7,2.7,22,0.00,,,0.00,VWS V14.01,2013-02-21 09:34:00,
2013-02-21 04:35:00,24.3,-9.1,29.82,SW,225,0.9,2.9,22,0.00,,,0.00,VWS V14.01,2013-02-21 09:35:00,
2013-02-21 04:36:00,24.3,-9.1,29.82,SW,225,7.2,7.2,22,0.00,,,0.00,VWS V14.01,2013-02-21 09:36:00,
2013-02-21 04:37:00,24.3,-9.1,29.82,SW,225,2.5,7.2,22,0.00,,,0.00,VWS V14.01,2013-02-21 09:37:00,
2013-02-21 04:39:00,24.4,-8.9,29.82,SW,225,0.9,5.4,22,0.00,,,0.00,VWS V14.01,2013-02-21 09:39:00,
2013-02-21 04:40:00,24.4,-8.9,29.82,SW,225,1.6,3.1,22,0.00,,,0.00,VWS V14.01,2013-02-21 09:40:00,
2013-02-21 04:42:00,24.4,-8.9,29.82,SW,225,2.5,2.9,22,0.00,,,0.00,VWS V14.01,2013-02-21 09:42:00,
2013-02-21 04:44:00,24.3,-9.1,29.82,SW,225,2.7,2.7,22,0.00,,,0.00,VWS V14.01,2013-02-21 09:44:00,
2013-02-21 04:45:00,24.3,-9.1,29.82,SW,225,1.3,1.6,22,0.00,,,0.00,VWS V14.01,2013-02-21 09:45:00,
2013-02-21 04:47:00,24.3,-9.1,29.82,SW,225,2.5,4.9,22,0.00,,,0.00,VWS V14.01,2013-02-21 09:47:00,
2013-02-21 04:49:00,24.3,-9.1,29.82,SW,225,1.1,4.0,22,0.00,,,0.00,VWS V14.01,2013-02-21 09:49:00,
2013-02-21 04:50:00,24.3,-9.1,29.82,SW,225,0.0,1.6,22,0.00,,,0.00,VWS V14.01,2013-02-21 09:50:00,
2013-02-21 04:52:00,24.3,-9.1,29.82,SW,225,2.9,2.9,22,0.00,,,0.00,VWS V14.01,2013-02-21 09:52:00,
2013-02-21 04:54:00,24.1,-9.2,29.85,SW,225,3.1,3.4,22,0.00,,,0.00,VWS V14.01,2013-02-21 09:54:00,
2013-02-21 04:55:00,24.1,-9.2,29.85,SW,225,3.4,3.4,22,0.00,,,0.00,VWS V14.01,2013-02-21 09:55:00,
2013-02-21 04:57:00,24.1,-9.2,29.85,SSW,202,2.7,8.1,22,0.00,,,0.00,VWS V14.01,2013-02-21 09:57:00,
2013-02-21 04:58:00,24.1,-9.2,29.85,SSW,202,1.3,3.6,22,0.00,,,0.00,VWS V14.01,2013-02-21 09:58:00,
2013-02-21 04:59:00,24.1,-9.2,29.85,SSW,202,3.8,3.8,22,0.00,,,0.00,VWS V14.01,2013-02-21 09:59:00,
2013-02-21 05:00:00,24.1,-9.2,29.85,SSW,202,1.6,3.8,22,0.00,,,0.00,VWS V14.01,2013-02-21 10:00:00,
2013-02-21 05:02:00,24.1,-9.2,29.85,SSW,202,2.9,2.9,22,0.00,,,0.00,VWS V14.01,2013-02-21 10:02:00,
2013-02-21 05:03:00,24.1,-9.2,29.85,SSW,202,2.9,2.9,22,0.00,,,0.00,VWS V14.01,2013-02-21 10:03:00,
2013-02-21 05:04:00,24.1,-9.2,29.85,SSW,202,0.9,0.9,22,0.00,,,0.00,VWS V14.01,2013-02-21 10:04:00,
2013-02-21 05:05:00,24.1,-9.2,29.85,SSW,202,1.6,2.0,22,0.00,,,0.00,VWS V14.01,2013-02-21 10:05:00,
2013-02-21 05:08:00,23.9,-9.4,29.85,SSW,202,2.9,2.9,22,0.00,,,0.00,VWS V14.01,2013-02-21 10:08:00,
2013-02-21 05:09:00,23.9,-9.4,29.82,SSW,202,0.9,1.6,22,0.00,,,0.00,VWS V14.01,2013-02-21 10:09:00,
2013-02-21 05:10:00,23.9,-9.4,29.82,SSW,202,1.1,4.7,22,0.00,,,0.00,VWS V14.01,2013-02-21 10:10:00,
2013-02-21 05:13:00,23.9,-9.4,29.82,SSW,202,1.3,1.3,22,0.00,,,0.00,VWS V14.01,2013-02-21 10:13:00,
2013-02-21 05:14:00,23.9,-9.4,29.82,SSW,202,2.5,2.5,22,0.00,,,0.00,VWS V14.01,2013-02-21 10:14:00,
2013-02-21 05:15:00,23.9,-9.4,29.82,SSW,202,0.9,2.7,22,0.00,,,0.00,VWS V14.01,2013-02-21 10:15:00,
2013-02-21 05:18:00,23.9,-9.4,29.82,SSW,202,2.9,2.9,22,0.00,,,0.00,VWS V14.01,2013-02-21 10:18:00,
2013-02-21 05:20:00,23.7,-9.6,29.82,SSW,202,2.9,2.9,22,0.00,,,0.00,VWS V14.01,2013-02-21 10:20:00,
2013-02-21 05:23:00,23.7,-9.6,29.82,SSW,202,0.0,0.0,22,0.00,,,0.00,VWS V14.01,2013-02-21 10:23:00,
2013-02-21 05:25:00,23.7,-9.6,29.82,SSW,202,1.6,2.2,22,0.00,,,0.00,VWS V14.01,2013-02-21 10:25:00,
2013-02-21 05:28:00,23.7,-9.6,29.82,SSW,202,1.1,1.1,22,0.00,,,0.00,VWS V14.01,2013-02-21 10:28:00,
2013-02-21 05:29:00,23.7,-9.6,29.82,SSW,202,3.1,3.8,22,0.00,,,0.00,VWS V14.01,2013-02-21 10:29:00,
2013-02-21 05:30:00,23.7,-9.6,29.82,SSW,202,0.0,0.0,22,0.00,,,0.00,VWS V14.01,2013-02-21 10:30:00,
2013-02-21 05:33:00,23.7,-9.6,29.82,SSW,202,1.1,4.0,22,0.00,,,0.00,VWS V14.01,2013-02-21 10:33:00,
2013-02-21 05:34:00,23.7,-9.6,29.82,SSW,202,2.9,2.9,22,0.00,,,0.00,VWS V14.01,2013-02-21 10:34:00,
2013-02-21 05:35:00,23.7,-9.6,29.82,SSW,202,2.5,3.4,22,0.00,,,0.00,VWS V14.01,2013-02-21 10:35:00,
2013-02-21 05:38:00,23.7,-9.6,29.82,SSW,202,1.6,2.7,22,0.00,,,0.00,VWS V14.01,2013-02-21 10:38:00,
2013-02-21 05:39:00,23.7,-9.6,29.85,SSW,202,0.9,2.7,22,0.00,,,0.00,VWS V14.01,2013-02-21 10:39:00,
2013-02-21 05:40:00,23.7,-9.6,29.85,SSW,202,0.9,2.0,22,0.00,,,0.00,VWS V14.01,2013-02-21 10:40:00,
2013-02-21 05:41:00,23.7,-9.6,29.85,SSW,202,1.1,1.1,22,0.00,,,0.00,VWS V14.01,2013-02-21 10:41:00,
2013-02-21 05:43:00,23.7,-9.6,29.85,SSW,202,2.5,3.4,22,0.00,,,0.00,VWS V14.01,2013-02-21 10:43:00,
2013-02-21 05:44:00,23.7,-9.6,29.85,SSW,202,2.5,2.5,22,0.00,,,0.00,VWS V14.01,2013-02-21 10:44:00,
2013-02-21 05:45:00,23.7,-9.6,29.85,SSW,202,3.1,3.1,22,0.00,,,0.00,VWS V14.01,2013-02-21 10:45:00,
2013-02-21 05:46:00,23.7,-9.6,29.85,SSW,202,1.6,1.6,22,0.00,,,0.00,VWS V14.01,2013-02-21 10:46:00,
2013-02-21 05:48:00,23.9,-9.4,29.85,SSW,202,2.7,2.7,22,0.00,,,0.00,VWS V14.01,2013-02-21 10:48:00,
2013-02-21 05:49:00,23.9,-9.4,29.85,SSW,202,0.9,1.1,22,0.00,,,0.00,VWS V14.01,2013-02-21 10:49:00,
2013-02-21 05:50:00,23.9,-9.4,29.85,SSW,202,1.1,1.1,22,0.00,,,0.00,VWS V14.01,2013-02-21 10:50:00,
2013-02-21 05:51:00,23.9,-9.4,29.85,SSW,202,2.7,2.7,22,0.00,,,0.00,VWS V14.01,2013-02-21 10:51:00,
2013-02-21 05:53:00,23.9,-9.4,29.85,SSW,202,2.5,2.7,22,0.00,,,0.00,VWS V14.01,2013-02-21 10:53:00,
2013-02-21 05:54:00,23.9,-9.4,29.85,SSW,202,0.0,2.2,22,0.00,,,0.00,VWS V14.01,2013-02-21 10:54:00,
2013-02-21 05:55:00,23.9,-9.4,29.85,SSW,202,1.1,2.2,22,0.00,,,0.00,VWS V14.01,2013-02-21 10:55:00,
2013-02-21 05:56:00,23.9,-9.4,29.85,SSW,202,1.1,2.7,22,0.00,,,0.00,VWS V14.01,2013-02-21 10:56:00,
2013-02-21 05:58:00,24.1,-9.2,29.85,SSW,202,0.9,1.3,22,0.00,,,0.00,VWS V14.01,2013-02-21 10:58:00,
2013-02-21 05:59:00,24.3,-9.1,29.85,SSW,202,0.0,1.1,22,0.00,,,0.00,VWS V14.01,2013-02-21 10:59:00,
2013-02-21 06:00:00,24.3,-9.1,29.85,SSW,202,1.3,1.3,22,0.00,,,0.00,VWS V14.01,2013-02-21 11:00:00,
2013-02-21 06:01:00,24.3,-9.1,29.85,SSW,202,2.7,3.1,22,0.00,,,0.00,VWS V14.01,2013-02-21 11:01:00,
2013-02-21 06:03:00,24.3,-9.1,29.85,SSW,202,1.1,2.2,22,0.00,,,0.00,VWS V14.01,2013-02-21 11:03:00,
2013-02-21 06:05:00,24.4,-8.9,29.85,SSW,202,2.2,2.2,22,0.00,,,0.00,VWS V14.01,2013-02-21 11:05:00,
2013-02-21 06:06:00,24.4,-8.9,29.85,SSW,202,3.4,3.4,22,0.00,,,0.00,VWS V14.01,2013-02-21 11:06:00,
2013-02-21 06:08:00,24.4,-8.9,29.85,SSW,202,0.0,3.1,22,0.00,,,0.00,VWS V14.01,2013-02-21 11:08:00,
2013-02-21 06:10:00,24.6,-8.8,29.85,SSW,202,1.6,3.1,22,0.00,,,0.00,VWS V14.01,2013-02-21 11:10:00,
2013-02-21 06:11:00,24.6,-8.8,29.85,SSW,202,3.4,3.4,22,0.00,,,0.00,VWS V14.01,2013-02-21 11:11:00,
2013-02-21 06:13:00,24.8,-8.6,29.85,SSW,202,2.0,5.8,22,0.00,,,0.00,VWS V14.01,2013-02-21 11:13:00,
2013-02-21 06:15:00,25.0,-9.4,29.85,SSW,202,2.2,2.9,21,0.00,,,0.00,VWS V14.01,2013-02-21 11:15:00,
2013-02-21 06:16:00,25.0,-9.4,29.85,SSW,202,0.9,0.9,21,0.00,,,0.00,VWS V14.01,2013-02-21 11:16:00,
2013-02-21 06:18:00,25.2,-9.3,29.85,SSW,202,0.9,3.1,21,0.00,,,0.00,VWS V14.01,2013-02-21 11:18:00,
2013-02-21 06:20:00,25.3,-9.1,29.85,SSW,202,2.0,2.0,21,0.00,,,0.00,VWS V14.01,2013-02-21 11:20:00,
2013-02-21 06:21:00,25.3,-9.1,29.85,SSW,202,2.0,2.9,21,0.00,,,0.00,VWS V14.01,2013-02-21 11:21:00,
2013-02-21 06:23:00,25.5,-9.0,29.85,SSW,202,3.8,3.8,21,0.00,,,0.00,VWS V14.01,2013-02-21 11:23:00,
2013-02-21 06:25:00,25.5,-9.0,29.85,SSW,202,0.0,2.0,21,0.00,,,0.00,VWS V14.01,2013-02-21 11:25:00,
2013-02-21 06:26:00,25.7,-8.8,29.85,SSW,202,2.5,2.5,21,0.00,,,0.00,VWS V14.01,2013-02-21 11:26:00,
2013-02-21 06:28:00,25.7,-8.8,29.85,SSW,202,2.0,2.5,21,0.00,,,0.00,VWS V14.01,2013-02-21 11:28:00,
2013-02-21 06:30:00,25.7,-8.8,29.85,SSW,202,0.9,2.0,21,0.00,,,0.00,VWS V14.01,2013-02-21 11:30:00,
2013-02-21 06:31:00,25.7,-8.8,29.85,SSW,202,0.0,0.9,21,0.00,,,0.00,VWS V14.01,2013-02-21 11:31:00,
2013-02-21 06:33:00,25.9,-8.7,29.85,SSW,202,1.1,1.6,21,0.00,,,0.00,VWS V14.01,2013-02-21 11:33:00,
2013-02-21 06:35:00,26.1,-8.5,29.85,SSW,202,2.7,4.9,21,0.00,,,0.00,VWS V14.01,2013-02-21 11:35:00,
2013-02-21 06:36:00,26.1,-8.5,29.85,SSW,202,2.0,2.7,21,0.00,,,0.00,VWS V14.01,2013-02-21 11:36:00,
2013-02-21 06:38:00,26.1,-8.5,29.85,SSW,202,0.9,0.9,21,0.00,,,0.00,VWS V14.01,2013-02-21 11:38:00,
2013-02-21 06:40:00,26.1,-8.5,29.85,SSW,202,1.1,1.1,21,0.00,,,0.00,VWS V14.01,2013-02-21 11:40:00,
2013-02-21 06:41:00,26.1,-8.5,29.85,SSW,202,0.9,2.0,21,0.00,,,0.00,VWS V14.01,2013-02-21 11:41:00,
2013-02-21 06:42:00,26.1,-8.5,29.85,SSW,202,3.8,3.8,21,0.00,,,0.00,VWS V14.01,2013-02-21 11:42:00,
2013-02-21 06:44:00,26.2,-8.4,29.85,SSW,202,0.0,0.0,21,0.00,,,0.00,VWS V14.01,2013-02-21 11:44:00,
2013-02-21 06:45:00,26.2,-8.4,29.85,SSW,202,1.3,4.0,21,0.00,,,0.00,VWS V14.01,2013-02-21 11:45:00,
2013-02-21 06:46:00,26.2,-8.4,29.85,SSW,202,1.1,2.2,21,0.00,,,0.00,VWS V14.01,2013-02-21 11:46:00,
2013-02-21 06:47:00,26.4,-8.2,29.85,SSW,202,0.0,4.0,21,0.00,,,0.00,VWS V14.01,2013-02-21 11:47:00,
2013-02-21 06:49:00,26.4,-8.2,29.85,SSW,202,2.5,2.5,21,0.00,,,0.00,VWS V14.01,2013-02-21 11:49:00,
2013-02-21 06:50:00,26.4,-8.2,29.85,SSW,202,0.9,2.9,21,0.00,,,0.00,VWS V14.01,2013-02-21 11:50:00,
2013-02-21 06:51:00,26.4,-8.2,29.85,SSW,202,2.7,3.4,21,0.00,,,0.00,VWS V14.01,2013-02-21 11:51:00,
2013-02-21 06:52:00,26.6,-8.1,29.85,SSW,202,5.4,5.4,21,0.00,,,0.00,VWS V14.01,2013-02-21 11:52:00,
2013-02-21 06:54:00,26.6,-8.1,29.85,SSW,202,2.0,2.5,21,0.00,,,0.00,VWS V14.01,2013-02-21 11:54:00,
2013-02-21 06:55:00,26.6,-8.1,29.85,SSW,202,4.3,4.3,21,0.00,,,0.00,VWS V14.01,2013-02-21 11:55:00,
2013-02-21 06:56:00,26.8,-7.9,29.85,SSW,202,2.5,4.3,21,0.00,,,0.00,VWS V14.01,2013-02-21 11:56:00,
2013-02-21 06:57:00,26.8,-7.9,29.85,SSW,202,3.4,6.5,21,0.00,,,0.00,VWS V14.01,2013-02-21 11:57:00,
2013-02-21 06:59:00,26.8,-7.9,29.85,SSW,202,0.9,2.5,21,0.00,,,0.00,VWS V14.01,2013-02-21 11:59:00,
2013-02-21 07:01:00,26.8,-7.9,29.85,SSW,202,2.9,4.3,21,0.00,,,0.00,VWS V14.01,2013-02-21 12:01:00,
2013-02-21 07:02:00,27.0,-7.8,29.85,SSW,202,3.1,3.1,21,0.00,,,0.00,VWS V14.01,2013-02-21 12:02:00,
2013-02-21 07:04:00,27.0,-7.8,29.85,SSW,202,1.1,2.5,21,0.00,,,0.00,VWS V14.01,2013-02-21 12:04:00,
2013-02-21 07:06:00,27.0,-7.8,29.85,SSW,202,2.0,2.0,21,0.00,,,0.00,VWS V14.01,2013-02-21 12:06:00,
2013-02-21 07:08:00,27.1,-7.6,29.85,SSW,202,1.3,1.3,21,0.00,,,0.00,VWS V14.01,2013-02-21 12:08:00,
2013-02-21 07:09:00,27.1,-7.6,29.85,SSW,202,0.9,4.0,21,0.00,,,0.00,VWS V14.01,2013-02-21 12:09:00,
2013-02-21 07:11:00,27.1,-7.6,29.85,SSW,202,2.9,2.9,21,0.00,,,0.00,VWS V14.01,2013-02-21 12:11:00,
2013-02-21 07:12:00,27.1,-7.6,29.85,SSW,202,2.9,3.4,21,0.00,,,0.00,VWS V14.01,2013-02-21 12:12:00,
2013-02-21 07:13:00,27.3,-7.4,29.85,SSW,202,2.2,7.2,21,0.00,,,0.00,VWS V14.01,2013-02-21 12:13:00,
2013-02-21 07:14:00,27.3,-7.4,29.85,SSW,202,2.5,2.5,21,0.00,,,0.00,VWS V14.01,2013-02-21 12:14:00,
2013-02-21 07:16:00,27.5,-7.3,29.85,SSW,202,0.9,4.3,21,0.00,,,0.00,VWS V14.01,2013-02-21 12:16:00,
2013-02-21 07:17:00,27.5,-7.3,29.85,SSW,202,1.6,3.8,21,0.00,,,0.00,VWS V14.01,2013-02-21 12:17:00,
2013-02-21 07:18:00,27.7,-7.2,29.85,SSW,202,1.1,2.5,21,0.00,,,0.00,VWS V14.01,2013-02-21 12:18:00,
2013-02-21 07:19:00,27.7,-7.2,29.85,SSW,202,2.7,2.7,21,0.00,,,0.00,VWS V14.01,2013-02-21 12:19:00,
2013-02-21 07:21:00,27.9,-7.0,29.85,SSW,202,3.1,4.0,21,0.00,,,0.00,VWS V14.01,2013-02-21 12:21:00,
2013-02-21 07:22:00,27.9,-7.0,29.85,SSW,202,2.0,3.1,21,0.00,,,0.00,VWS V14.01,2013-02-21 12:22:00,
2013-02-21 07:23:00,27.9,-7.0,29.85,SSW,202,3.6,3.6,21,0.00,,,0.00,VWS V14.01,2013-02-21 12:23:00,
2013-02-21 07:24:00,27.9,-7.0,29.88,SSW,202,2.5,3.1,21,0.00,,,0.00,VWS V14.01,2013-02-21 12:24:00,
2013-02-21 07:26:00,28.0,-6.8,29.88,SSW,202,4.7,4.7,21,0.00,,,0.00,VWS V14.01,2013-02-21 12:26:00,
2013-02-21 07:27:00,28.0,-6.8,29.88,SSW,202,2.5,4.7,21,0.00,,,0.00,VWS V14.01,2013-02-21 12:27:00,
2013-02-21 07:28:00,28.2,-6.7,29.88,SSW,202,1.6,2.5,21,0.00,,,0.00,VWS V14.01,2013-02-21 12:28:00,
2013-02-21 07:29:00,28.2,-6.7,29.88,SSW,202,1.3,1.3,21,0.00,,,0.00,VWS V14.01,2013-02-21 12:29:00,
2013-02-21 07:31:00,28.2,-6.7,29.88,SSW,202,1.6,5.6,21,0.00,,,0.00,VWS V14.01,2013-02-21 12:31:00,
2013-02-21 07:32:00,28.2,-6.7,29.88,SSW,202,1.6,1.6,21,0.00,,,0.00,VWS V14.01,2013-02-21 12:32:00,
2013-02-21 07:33:00,28.4,-6.5,29.88,SSW,202,1.6,3.6,21,0.00,,,0.00,VWS V14.01,2013-02-21 12:33:00,
2013-02-21 07:34:00,28.4,-6.5,29.88,SSW,202,1.1,3.8,21,0.00,,,0.00,VWS V14.01,2013-02-21 12:34:00,
2013-02-21 07:37:00,28.4,-6.5,29.88,SSW,202,2.0,2.7,21,0.00,,,0.00,VWS V14.01,2013-02-21 12:37:00,
2013-02-21 07:38:00,28.6,-7.4,29.88,SSW,202,5.8,5.8,20,0.00,,,0.00,VWS V14.01,2013-02-21 12:38:00,
2013-02-21 07:39:00,28.6,-7.4,29.85,SSW,202,3.6,3.6,20,0.00,,,0.00,VWS V14.01,2013-02-21 12:39:00,
2013-02-21 07:42:00,28.6,-7.4,29.85,SSW,202,0.0,2.2,20,0.00,,,0.00,VWS V14.01,2013-02-21 12:42:00,
2013-02-21 07:43:00,28.6,-7.4,29.85,SSW,202,1.3,1.3,20,0.00,,,0.00,VWS V14.01,2013-02-21 12:43:00,
2013-02-21 07:44:00,28.8,-7.2,29.85,SSW,202,2.0,3.6,20,0.00,,,0.00,VWS V14.01,2013-02-21 12:44:00,
2013-02-21 07:47:00,28.8,-7.2,29.85,SSW,202,0.0,2.9,20,0.00,,,0.00,VWS V14.01,2013-02-21 12:47:00,
2013-02-21 07:48:00,28.8,-7.2,29.85,SSW,202,2.7,2.7,20,0.00,,,0.00,VWS V14.01,2013-02-21 12:48:00,
2013-02-21 07:49:00,28.8,-7.2,29.85,SSW,202,1.3,1.3,20,0.00,,,0.00,VWS V14.01,2013-02-21 12:49:00,
2013-02-21 07:52:00,28.9,-7.1,29.85,SSW,202,2.9,5.4,20,0.00,,,0.00,VWS V14.01,2013-02-21 12:52:00,
2013-02-21 07:53:00,28.9,-7.1,29.85,SSW,202,2.7,3.8,20,0.00,,,0.00,VWS V14.01,2013-02-21 12:53:00,
2013-02-21 07:54:00,28.9,-7.1,29.85,SSW,202,0.9,2.0,20,0.00,,,0.00,VWS V14.01,2013-02-21 12:54:00,
2013-02-21 07:57:00,29.1,-6.9,29.88,SSW,202,1.6,2.5,20,0.00,,,0.00,VWS V14.01,2013-02-21 12:57:00,
2013-02-21 07:58:00,29.1,-6.9,29.88,SSW,202,2.7,5.6,20,0.00,,,0.00,VWS V14.01,2013-02-21 12:58:00,
2013-02-21 07:59:00,29.1,-6.9,29.88,SSW,202,0.9,2.0,20,0.00,,,0.00,VWS V14.01,2013-02-21 12:59:00,
2013-02-21 08:00:00,29.1,-6.9,29.88,SSW,202,2.0,4.0,20,0.00,,,0.00,VWS V14.01,2013-02-21 13:00:00,
2013-02-21 08:02:00,29.1,-6.9,29.88,SSW,202,0.0,2.5,20,0.00,,,0.00,VWS V14.01,2013-02-21 13:02:00,
2013-02-21 08:03:00,29.1,-6.9,29.88,SSW,202,0.9,2.7,20,0.00,,,0.00,VWS V14.01,2013-02-21 13:03:00,
2013-02-21 08:04:00,29.1,-6.9,29.88,SSW,202,0.9,1.1,20,0.00,,,0.00,VWS V14.01,2013-02-21 13:04:00,
2013-02-21 08:05:00,29.3,-6.8,29.88,SSW,202,3.1,3.1,20,0.00,,,0.00,VWS V14.01,2013-02-21 13:05:00,
2013-02-21 08:07:00,29.3,-6.8,29.88,SSW,202,1.6,1.6,20,0.00,,,0.00,VWS V14.01,2013-02-21 13:07:00,
2013-02-21 08:08:00,29.3,-6.8,29.88,SSW,202,1.6,1.6,20,0.00,,,0.00,VWS V14.01,2013-02-21 13:08:00,
2013-02-21 08:09:00,29.3,-6.8,29.88,SSW,202,1.3,4.3,20,0.00,,,0.00,VWS V14.01,2013-02-21 13:09:00,
2013-02-21 08:10:00,29.3,-6.8,29.88,SSW,202,3.8,3.8,20,0.00,,,0.00,VWS V14.01,2013-02-21 13:10:00,
2013-02-21 08:12:00,29.5,-6.6,29.88,SSW,202,1.6,1.6,20,0.00,,,0.00,VWS V14.01,2013-02-21 13:12:00,
2013-02-21 08:13:00,29.5,-6.6,29.88,SSW,202,1.1,4.0,20,0.00,,,0.00,VWS V14.01,2013-02-21 13:13:00,
2013-02-21 08:14:00,29.5,-6.6,29.88,SSW,202,1.3,2.0,20,0.00,,,0.00,VWS V14.01,2013-02-21 13:14:00,
2013-02-21 08:15:00,29.5,-6.6,29.88,SW,225,2.9,8.7,20,0.00,,,0.00,VWS V14.01,2013-02-21 13:15:00,
2013-02-21 08:17:00,29.5,-6.6,29.88,SW,225,3.4,10.1,20,0.00,,,0.00,VWS V14.01,2013-02-21 13:17:00,
2013-02-21 08:18:00,29.5,-6.6,29.88,SW,225,3.4,3.4,20,0.00,,,0.00,VWS V14.01,2013-02-21 13:18:00,
2013-02-21 08:19:00,29.5,-6.6,29.88,SW,225,2.7,4.9,20,0.00,,,0.00,VWS V14.01,2013-02-21 13:19:00,
2013-02-21 08:20:00,29.5,-6.6,29.88,SW,225,3.1,3.6,20,0.00,,,0.00,VWS V14.01,2013-02-21 13:20:00,
2013-02-21 08:22:00,29.5,-6.6,29.88,SW,225,1.6,4.7,20,0.00,,,0.00,VWS V14.01,2013-02-21 13:22:00,
2013-02-21 08:23:00,29.5,-6.6,29.88,SW,225,2.0,3.4,20,0.00,,,0.00,VWS V14.01,2013-02-21 13:23:00,
2013-02-21 08:24:00,29.5,-6.6,29.85,SW,225,1.3,3.4,20,0.00,,,0.00,VWS V14.01,2013-02-21 13:24:00,
2013-02-21 08:25:00,29.5,-6.6,29.85,SW,225,0.9,2.0,20,0.00,,,0.00,VWS V14.01,2013-02-21 13:25:00,
2013-02-21 08:27:00,29.5,-6.6,29.85,SW,225,2.9,3.8,20,0.00,,,0.00,VWS V14.01,2013-02-21 13:27:00,
2013-02-21 08:29:00,29.5,-6.6,29.85,SW,225,0.9,2.5,20,0.00,,,0.00,VWS V14.01,2013-02-21 13:29:00,
2013-02-21 08:30:00,29.5,-6.6,29.85,SW,225,3.1,5.4,20,0.00,,,0.00,VWS V14.01,2013-02-21 13:30:00,
2013-02-21 08:32:00,29.5,-6.6,29.85,SW,225,0.9,4.0,20,0.00,,,0.00,VWS V14.01,2013-02-21 13:32:00,
2013-02-21 08:34:00,29.5,-6.6,29.85,SW,225,7.8,7.8,20,0.00,,,0.00,VWS V14.01,2013-02-21 13:34:00,
2013-02-21 08:35:00,29.5,-6.6,29.85,SSW,202,3.6,4.3,20,0.00,,,0.00,VWS V14.01,2013-02-21 13:35:00,
2013-02-21 08:37:00,29.5,-6.6,29.85,SSW,202,2.7,4.3,20,0.00,,,0.00,VWS V14.01,2013-02-21 13:37:00,
2013-02-21 08:39:00,29.5,-6.6,29.85,SSW,202,2.9,5.6,20,0.00,,,0.00,VWS V14.01,2013-02-21 13:39:00,
2013-02-21 08:40:00,29.7,-6.5,29.85,SSW,202,4.3,4.3,20,0.00,,,0.00,VWS V14.01,2013-02-21 13:40:00,
2013-02-21 08:43:00,29.7,-6.5,29.85,SSW,202,4.0,4.0,20,0.00,,,0.00,VWS V14.01,2013-02-21 13:43:00,
2013-02-21 08:44:00,29.8,-6.3,29.85,SSW,202,3.6,3.6,20,0.00,,,0.00,VWS V14.01,2013-02-21 13:44:00,
2013-02-21 08:45:00,29.8,-6.3,29.85,SSW,202,2.9,4.7,20,0.00,,,0.00,VWS V14.01,2013-02-21 13:45:00,
2013-02-21 08:48:00,30.0,-6.2,29.85,SSW,202,1.6,1.6,20,0.00,,,0.00,VWS V14.01,2013-02-21 13:48:00,
2013-02-21 08:49:00,30.2,-6.0,29.85,SSW,202,1.3,1.3,20,0.00,,,0.00,VWS V14.01,2013-02-21 13:49:00,
2013-02-21 08:50:00,30.2,-6.0,29.85,SSW,202,2.5,3.1,20,0.00,,,0.00,VWS V14.01,2013-02-21 13:50:00,
2013-02-21 08:51:00,30.2,-6.0,29.85,SSW,202,2.9,2.9,20,0.00,,,0.00,VWS V14.01,2013-02-21 13:51:00,
2013-02-21 08:53:00,30.2,-6.0,29.85,SSW,202,6.3,6.3,20,0.00,,,0.00,VWS V14.01,2013-02-21 13:53:00,
2013-02-21 08:54:00,30.2,-6.0,29.85,SSW,202,2.2,7.4,20,0.00,,,0.00,VWS V14.01,2013-02-21 13:54:00,
2013-02-21 08:55:00,30.2,-6.0,29.85,SSW,202,2.5,4.0,20,0.00,,,0.00,VWS V14.01,2013-02-21 13:55:00,
2013-02-21 08:56:00,30.2,-6.0,29.85,SSW,202,2.2,2.7,20,0.00,,,0.00,VWS V14.01,2013-02-21 13:56:00,
2013-02-21 08:58:00,30.2,-6.0,29.85,SSW,202,1.1,2.7,20,0.00,,,0.00,VWS V14.01,2013-02-21 13:58:00,
2013-02-21 08:59:00,30.4,-5.9,29.85,SSW,202,3.8,3.8,20,0.00,,,0.00,VWS V14.01,2013-02-21 13:59:00,
2013-02-21 09:00:00,30.4,-5.9,29.85,SSW,202,5.8,5.8,20,0.00,,,0.00,VWS V14.01,2013-02-21 14:00:00,
2013-02-21 09:01:00,30.6,-5.7,29.85,SSW,202,3.8,6.5,20,0.00,,,0.00,VWS V14.01,2013-02-21 14:01:00,
2013-02-21 09:03:00,30.7,-5.6,29.85,SSW,202,2.5,2.5,20,0.00,,,0.00,VWS V14.01,2013-02-21 14:03:00,
2013-02-21 09:04:00,30.9,-5.4,29.85,SSW,202,3.6,3.6,20,0.00,,,0.00,VWS V14.01,2013-02-21 14:04:00,
2013-02-21 09:05:00,31.1,-5.3,29.85,SSW,202,6.0,6.7,20,0.00,,,0.00,VWS V14.01,2013-02-21 14:05:00,
2013-02-21 09:06:00,31.1,-5.3,29.85,SSW,202,2.0,5.4,20,0.00,,,0.00,VWS V14.01,2013-02-21 14:06:00,
2013-02-21 09:09:00,31.5,-5.0,29.85,SSW,202,8.1,8.1,20,0.00,,,0.00,VWS V14.01,2013-02-21 14:09:00,
2013-02-21 09:10:00,31.5,-5.0,29.85,SSW,202,3.4,5.4,20,0.00,,,0.00,VWS V14.01,2013-02-21 14:10:00,
2013-02-21 09:11:00,31.6,-4.8,29.85,SSW,202,4.3,4.3,20,0.00,,,0.00,VWS V14.01,2013-02-21 14:11:00,
2013-02-21 09:14:00,31.8,-4.7,29.85,SSW,202,1.1,1.3,20,0.00,,,0.00,VWS V14.01,2013-02-21 14:14:00,
2013-02-21 09:15:00,31.8,-4.7,29.85,SSW,202,2.7,2.7,20,0.00,,,0.00,VWS V14.01,2013-02-21 14:15:00,
2013-02-21 09:17:00,32.0,-4.5,29.85,South,180,8.7,8.7,20,0.00,,,0.00,VWS V14.01,2013-02-21 14:17:00,
2013-02-21 09:19:00,32.0,-4.5,29.85,SSW,202,3.6,8.7,20,0.00,,,0.00,VWS V14.01,2013-02-21 14:19:00,
2013-02-21 09:20:00,32.0,-4.5,29.85,SSW,202,3.4,3.6,20,0.00,,,0.00,VWS V14.01,2013-02-21 14:20:00,
2013-02-21 09:22:00,32.0,-4.5,29.85,SW,225,2.2,3.6,20,0.00,,,0.00,VWS V14.01,2013-02-21 14:22:00,
2013-02-21 09:24:00,32.0,-4.5,29.85,SW,225,2.7,5.4,20,0.00,,,0.00,VWS V14.01,2013-02-21 14:24:00,
2013-02-21 09:26:00,32.2,-4.4,29.85,SW,225,5.4,5.4,20,0.00,,,0.00,VWS V14.01,2013-02-21 14:26:00,
2013-02-21 09:27:00,32.2,-4.4,29.85,SW,225,1.1,2.5,20,0.00,,,0.00,VWS V14.01,2013-02-21 14:27:00,
2013-02-21 09:29:00,32.2,-4.4,29.85,SW,225,2.5,3.8,20,0.00,,,0.00,VWS V14.01,2013-02-21 14:29:00,
2013-02-21 09:31:00,32.2,-4.4,29.85,SW,225,1.3,2.9,20,0.00,,,0.00,VWS V14.01,2013-02-21 14:31:00,
2013-02-21 09:32:00,32.4,-4.2,29.85,SW,225,3.8,4.3,20,0.00,,,0.00,VWS V14.01,2013-02-21 14:32:00,
2013-02-21 09:34:00,32.5,-4.1,29.85,South,180,10.3,10.3,20,0.00,,,0.00,VWS V14.01,2013-02-21 14:34:00,
2013-02-21 09:36:00,32.5,-4.1,29.85,South,180,2.0,8.1,20,0.00,,,0.00,VWS V14.01,2013-02-21 14:36:00,
2013-02-21 09:37:00,32.5,-4.1,29.85,SSW,202,3.1,3.1,20,0.00,,,0.00,VWS V14.01,2013-02-21 14:37:00,
2013-02-21 09:39:00,32.7,-3.9,29.85,SSW,202,2.7,4.3,20,0.00,,,0.00,VWS V14.01,2013-02-21 14:39:00,
2013-02-21 09:40:00,32.7,-3.9,29.85,SSW,202,1.3,5.8,20,0.00,,,0.00,VWS V14.01,2013-02-21 14:40:00,
2013-02-21 09:41:00,32.9,-3.8,29.85,SSW,202,2.5,6.5,20,0.00,,,0.00,VWS V14.01,2013-02-21 14:41:00,
2013-02-21 09:42:00,32.9,-3.8,29.85,SSW,202,2.9,2.9,20,0.00,,,0.00,VWS V14.01,2013-02-21 14:42:00,
2013-02-21 09:44:00,33.1,-3.6,29.85,WSW,248,10.7,10.7,20,0.00,,,0.00,VWS V14.01,2013-02-21 14:44:00,
2013-02-21 09:45:00,33.1,-3.6,29.85,WSW,248,5.4,5.8,20,0.00,,,0.00,VWS V14.01,2013-02-21 14:45:00,
2013-02-21 09:46:00,33.1,-3.6,29.85,WSW,248,2.5,2.5,20,0.00,,,0.00,VWS V14.01,2013-02-21 14:46:00,
2013-02-21 09:47:00,33.1,-3.6,29.85,WSW,248,3.6,3.8,20,0.00,,,0.00,VWS V14.01,2013-02-21 14:47:00,
2013-02-21 09:49:00,33.3,-3.5,29.85,SSW,202,5.6,5.6,20,0.00,,,0.00,VWS V14.01,2013-02-21 14:49:00,
2013-02-21 09:50:00,33.3,-3.5,29.85,SSW,202,4.0,5.6,20,0.00,,,0.00,VWS V14.01,2013-02-21 14:50:00,
2013-02-21 09:51:00,33.3,-3.5,29.85,WSW,248,2.9,9.4,20,0.00,,,0.00,VWS V14.01,2013-02-21 14:51:00,
2013-02-21 09:52:00,33.3,-3.5,29.85,WSW,248,2.9,9.4,20,0.00,,,0.00,VWS V14.01,2013-02-21 14:52:00,
2013-02-21 09:55:00,33.3,-3.5,29.85,WSW,248,2.5,4.3,20,0.00,,,0.00,VWS V14.01,2013-02-21 14:55:00,
2013-02-21 09:56:00,33.4,-3.3,29.85,SW,225,3.6,3.6,20,0.00,,,0.00,VWS V14.01,2013-02-21 14:56:00,
2013-02-21 09:57:00,33.6,-3.2,29.85,SSW,202,3.8,7.4,20,0.00,,,0.00,VWS V14.01,2013-02-21 14:57:00,
2013-02-21 10:00:00,33.8,-3.0,29.85,SSW,202,2.9,4.7,20,0.00,,,0.00,VWS V14.01,2013-02-21 15:00:00,
2013-02-21 10:01:00,33.8,-3.0,29.85,SSW,202,3.6,3.6,20,0.00,,,0.00,VWS V14.01,2013-02-21 15:01:00,
2013-02-21 10:02:00,33.8,-3.0,29.85,SSW,202,1.1,4.0,20,0.00,,,0.00,VWS V14.01,2013-02-21 15:02:00,
2013-02-21 10:05:00,33.8,-3.0,29.85,WSW,248,7.2,7.2,20,0.00,,,0.00,VWS V14.01,2013-02-21 15:05:00,
2013-02-21 10:07:00,34.0,-2.9,29.85,WSW,248,6.0,6.0,20,0.00,,,0.00,VWS V14.01,2013-02-21 15:07:00,
2013-02-21 10:10:00,34.2,-2.7,29.85,SSW,202,1.1,4.9,20,0.00,,,0.00,VWS V14.01,2013-02-21 15:10:00,
2013-02-21 10:12:00,34.3,-2.6,29.85,SSW,202,2.5,4.0,20,0.00,,,0.00,VWS V14.01,2013-02-21 15:12:00,
2013-02-21 10:15:00,34.5,-2.4,29.85,South,180,4.7,5.8,20,0.00,,,0.00,VWS V14.01,2013-02-21 15:15:00,
2013-02-21 10:17:00,34.9,-2.1,29.85,SSW,202,3.4,4.7,20,0.00,,,0.00,VWS V14.01,2013-02-21 15:17:00,
2013-02-21 10:18:00,34.9,-2.1,29.85,SSW,202,4.0,4.0,20,0.00,,,0.00,VWS V14.01,2013-02-21 15:18:00,
2013-02-21 10:20:00,35.1,-2.0,29.85,SSW,202,2.7,4.3,20,0.00,,,0.00,VWS V14.01,2013-02-21 15:20:00,
2013-02-21 10:21:00,35.1,-2.0,29.85,SSW,202,2.7,4.3,20,0.00,,,0.00,VWS V14.01,2013-02-21 15:21:00,
2013-02-21 10:22:00,35.2,-1.8,29.85,WSW,248,10.3,10.3,20,0.00,,,0.00,VWS V14.01,2013-02-21 15:22:00,
2013-02-21 10:23:00,35.2,-1.8,29.85,WSW,248,5.4,10.3,20,0.00,,,0.00,VWS V14.01,2013-02-21 15:23:00,
2013-02-21 10:25:00,35.2,-1.8,29.85,SW,225,4.7,6.9,20,0.00,,,0.00,VWS V14.01,2013-02-21 15:25:00,
2013-02-21 10:26:00,35.2,-1.8,29.85,South,180,9.8,9.8,20,0.00,,,0.00,VWS V14.01,2013-02-21 15:26:00,
2013-02-21 10:27:00,35.2,-1.8,29.85,SSE,158,4.0,7.8,20,0.00,,,0.00,VWS V14.01,2013-02-21 15:27:00,
2013-02-21 10:28:00,35.2,-1.8,29.85,WSW,248,13.4,13.4,20,0.00,,,0.00,VWS V14.01,2013-02-21 15:28:00,
2013-02-21 10:31:00,35.2,-1.8,29.85,South,180,3.1,8.7,20,0.00,,,0.00,VWS V14.01,2013-02-21 15:31:00,
2013-02-21 10:32:00,35.2,-1.8,29.85,SSW,202,4.7,5.6,20,0.00,,,0.00,VWS V14.01,2013-02-21 15:32:00,
2013-02-21 10:33:00,35.2,-1.8,29.85,WSW,248,8.5,8.5,20,0.00,,,0.00,VWS V14.01,2013-02-21 15:33:00,
2013-02-21 10:36:00,35.2,-1.8,29.85,SSW,202,2.7,6.0,20,0.00,,,0.00,VWS V14.01,2013-02-21 15:36:00,
2013-02-21 10:37:00,35.4,-1.6,29.85,SSW,202,4.0,6.5,20,0.00,,,0.00,VWS V14.01,2013-02-21 15:37:00,
2013-02-21 10:38:00,35.4,-1.6,29.85,SSW,202,6.5,6.5,20,0.00,,,0.00,VWS V14.01,2013-02-21 15:38:00,
2013-02-21 10:41:00,35.8,-2.4,29.85,SW,225,4.7,17.5,19,0.00,,,0.00,VWS V14.01,2013-02-21 15:41:00,
2013-02-21 10:43:00,36.3,-2.0,29.85,SSW,202,4.0,10.7,19,0.00,,,0.00,VWS V14.01,2013-02-21 15:43:00,
2013-02-21 10:46:00,36.7,-1.7,29.85,SSW,202,5.4,9.6,19,0.00,,,0.00,VWS V14.01,2013-02-21 15:46:00,
2013-02-21 10:48:00,37.0,-1.4,29.85,SSW,202,2.9,5.6,19,0.00,,,0.00,VWS V14.01,2013-02-21 15:48:00,
2013-02-21 10:51:00,37.9,-0.6,29.85,SSW,202,4.7,4.7,19,0.00,,,0.00,VWS V14.01,2013-02-21 15:51:00,
2013-02-21 10:53:00,38.5,-0.2,29.85,SSW,202,2.5,4.3,19,0.00,,,0.00,VWS V14.01,2013-02-21 15:53:00,
2013-02-21 10:56:00,39.2,-0.7,29.85,SSW,202,4.3,6.0,18,0.00,,,0.00,VWS V14.01,2013-02-21 15:56:00,
2013-02-21 10:58:00,39.4,-0.6,29.85,SSW,202,1.6,5.4,18,0.00,,,0.00,VWS V14.01,2013-02-21 15:58:00,
2013-02-21 11:01:00,39.9,-0.1,29.85,SSW,202,5.4,5.4,18,0.00,,,0.00,VWS V14.01,2013-02-21 16:01:00,
2013-02-21 11:03:00,40.3,0.2,29.85,SSW,202,4.0,5.6,18,0.00,,,0.00,VWS V14.01,2013-02-21 16:03:00,
2013-02-21 11:04:00,40.3,0.2,29.85,South,180,3.4,8.1,18,0.00,,,0.00,VWS V14.01,2013-02-21 16:04:00,
2013-02-21 11:06:00,40.5,0.3,29.85,SSW,202,9.2,9.2,18,0.00,,,0.00,VWS V14.01,2013-02-21 16:06:00,
2013-02-21 11:08:00,40.3,0.2,29.85,SSW,202,4.0,5.8,18,0.00,,,0.00,VWS V14.01,2013-02-21 16:08:00,
2013-02-21 11:09:00,39.9,-0.1,29.85,SSW,202,6.0,6.0,18,0.00,,,0.00,VWS V14.01,2013-02-21 16:09:00,
2013-02-21 11:11:00,39.9,-0.1,29.88,SSE,158,5.8,5.8,18,0.00,,,0.00,VWS V14.01,2013-02-21 16:11:00,
2013-02-21 11:12:00,39.9,-0.1,29.88,SSW,202,4.9,5.8,18,0.00,,,0.00,VWS V14.01,2013-02-21 16:12:00,
2013-02-21 11:13:00,39.9,-0.1,29.88,SSW,202,2.7,2.7,18,0.00,,,0.00,VWS V14.01,2013-02-21 16:13:00,
2013-02-21 11:14:00,40.5,0.3,29.88,SSW,202,2.7,2.7,18,0.00,,,0.00,VWS V14.01,2013-02-21 16:14:00,
2013-02-21 11:16:00,41.0,0.8,29.88,SSW,202,0.0,0.0,18,0.00,,,0.00,VWS V14.01,2013-02-21 16:16:00,
2013-02-21 11:17:00,41.0,0.8,29.88,SSW,202,0.0,0.9,18,0.00,,,0.00,VWS V14.01,2013-02-21 16:17:00,
2013-02-21 11:19:00,41.4,1.0,29.88,SW,225,0.0,8.7,18,0.00,,,0.00,VWS V14.01,2013-02-21 16:19:00,
2013-02-21 11:22:00,41.7,1.4,29.88,SSW,202,0.0,0.9,18,0.00,,,0.00,VWS V14.01,2013-02-21 16:22:00,
2013-02-21 11:24:00,42.3,1.8,29.88,SSW,202,0.0,0.0,18,0.00,,,0.00,VWS V14.01,2013-02-21 16:24:00,
2013-02-21 11:27:00,43.0,2.4,29.88,SSW,202,2.2,2.2,18,0.00,,,0.00,VWS V14.01,2013-02-21 16:27:00,
2013-02-21 11:29:00,43.2,2.5,29.88,SSW,202,2.0,2.0,18,0.00,,,0.00,VWS V14.01,2013-02-21 16:29:00,
2013-02-21 11:32:00,43.3,2.7,29.88,South,180,1.3,10.5,18,0.00,,,0.00,VWS V14.01,2013-02-21 16:32:00,
2013-02-21 11:34:00,43.3,2.7,29.88,South,180,2.5,2.5,18,0.00,,,0.00,VWS V14.01,2013-02-21 16:34:00,
2013-02-21 11:37:00,43.9,3.1,29.88,South,180,2.0,9.0,18,0.00,,,0.00,VWS V14.01,2013-02-21 16:37:00,
2013-02-21 11:39:00,44.1,3.3,29.91,South,180,0.0,3.1,18,0.00,,,0.00,VWS V14.01,2013-02-21 16:39:00,
2013-02-21 11:42:00,44.2,3.4,29.91,SSW,202,2.9,4.5,18,0.00,,,0.00,VWS V14.01,2013-02-21 16:42:00,
2013-02-21 11:43:00,44.2,3.4,29.91,SSW,202,5.6,5.6,18,0.00,,,0.00,VWS V14.01,2013-02-21 16:43:00,
2013-02-21 11:44:00,44.2,3.4,29.91,SSW,202,1.1,2.7,18,0.00,,,0.00,VWS V14.01,2013-02-21 16:44:00,
2013-02-21 11:47:00,44.8,2.6,29.91,SSW,202,0.9,0.9,17,0.00,,,0.00,VWS V14.01,2013-02-21 16:47:00,
2013-02-21 11:48:00,44.8,2.6,29.91,SSW,202,4.3,7.6,17,0.00,,,0.00,VWS V14.01,2013-02-21 16:48:00,
2013-02-21 11:49:00,45.3,3.1,29.91,South,180,2.7,6.9,17,0.00,,,0.00,VWS V14.01,2013-02-21 16:49:00,
2013-02-21 11:53:00,45.5,3.2,29.91,South,180,8.1,8.1,17,0.00,,,0.00,VWS V14.01,2013-02-21 16:53:00,
2013-02-21 11:54:00,45.7,3.4,29.88,South,180,2.7,2.9,17,0.00,,,0.00,VWS V14.01,2013-02-21 16:54:00,
2013-02-21 11:58:00,46.0,3.7,29.88,SSW,202,0.0,3.1,17,0.00,,,0.00,VWS V14.01,2013-02-21 16:58:00,
2013-02-21 11:59:00,46.4,4.0,29.88,SSW,202,4.9,4.9,17,0.00,,,0.00,VWS V14.01,2013-02-21 16:59:00,
2013-02-21 12:03:00,46.6,4.1,29.88,SSW,202,0.9,5.6,17,0.00,,,0.00,VWS V14.01,2013-02-21 17:03:00,
2013-02-21 12:04:00,46.6,4.1,29.88,South,180,4.3,5.8,17,0.00,,,0.00,VWS V14.01,2013-02-21 17:04:00,
2013-02-21 12:08:00,46.8,4.3,29.88,South,180,3.8,8.1,17,0.00,,,0.00,VWS V14.01,2013-02-21 17:08:00,
2013-02-21 12:09:00,46.6,4.1,29.88,SSW,202,5.4,7.4,17,0.00,,,0.00,VWS V14.01,2013-02-21 17:09:00,
2013-02-21 12:13:00,46.9,4.4,29.88,SSW,202,1.6,4.3,17,0.00,,,0.00,VWS V14.01,2013-02-21 17:13:00,
2013-02-21 12:14:00,46.9,4.4,29.88,SSW,202,1.1,1.6,17,0.00,,,0.00,VWS V14.01,2013-02-21 17:14:00,
2013-02-21 12:15:00,47.1,4.6,29.88,SSW,202,1.6,3.1,17,0.00,,,0.00,VWS V14.01,2013-02-21 17:15:00,
2013-02-21 12:18:00,48.2,4.1,29.88,South,180,1.6,7.8,16,0.00,,,0.00,VWS V14.01,2013-02-21 17:18:00,
2013-02-21 12:19:00,48.4,4.3,29.88,South,180,2.7,2.7,16,0.00,,,0.00,VWS V14.01,2013-02-21 17:19:00,
2013-02-21 12:20:00,48.7,4.6,29.88,South,180,1.1,7.2,16,0.00,,,0.00,VWS V14.01,2013-02-21 17:20:00,
2013-02-21 12:23:00,49.1,4.9,29.88,South,180,6.0,6.0,16,0.00,,,0.00,VWS V14.01,2013-02-21 17:23:00,
2013-02-21 12:24:00,49.3,5.0,29.88,South,180,6.0,6.0,16,0.00,,,0.00,VWS V14.01,2013-02-21 17:24:00,
2013-02-21 12:25:00,49.5,5.2,29.88,South,180,2.5,7.8,16,0.00,,,0.00,VWS V14.01,2013-02-21 17:25:00,
2013-02-21 12:28:00,50.4,5.9,29.88,South,180,2.5,3.8,16,0.00,,,0.00,VWS V14.01,2013-02-21 17:28:00,
2013-02-21 12:29:00,50.4,5.9,29.88,South,180,4.7,4.7,16,0.00,,,0.00,VWS V14.01,2013-02-21 17:29:00,
2013-02-21 12:30:00,50.5,6.0,29.88,SSW,202,6.3,6.3,16,0.00,,,0.00,VWS V14.01,2013-02-21 17:30:00,
2013-02-21 12:34:00,50.7,6.2,29.88,SSW,202,0.0,3.8,16,0.00,,,0.00,VWS V14.01,2013-02-21 17:34:00,
2013-02-21 12:35:00,50.9,6.3,29.88,SSW,202,0.9,3.8,16,0.00,,,0.00,VWS V14.01,2013-02-21 17:35:00,
2013-02-21 12:39:00,51.6,6.9,29.88,SSW,202,0.9,1.6,16,0.00,,,0.00,VWS V14.01,2013-02-21 17:39:00,
2013-02-21 12:40:00,52.0,7.2,29.88,SSW,202,3.6,3.6,16,0.00,,,0.00,VWS V14.01,2013-02-21 17:40:00,
2013-02-21 12:44:00,52.9,7.9,29.88,SSW,202,1.6,7.2,16,0.00,,,0.00,VWS V14.01,2013-02-21 17:44:00,
2013-02-21 12:45:00,53.1,8.1,29.88,SSW,202,0.9,2.9,16,0.00,,,0.00,VWS V14.01,2013-02-21 17:45:00,
2013-02-21 12:49:00,52.3,7.5,29.88,South,180,4.3,4.3,16,0.00,,,0.00,VWS V14.01,2013-02-21 17:49:00,
2013-02-21 12:50:00,52.0,7.2,29.88,South,180,3.1,3.1,16,0.00,,,0.00,VWS V14.01,2013-02-21 17:50:00,
2013-02-21 12:54:00,51.1,6.5,29.85,South,180,6.0,7.6,16,0.00,,,0.00,VWS V14.01,2013-02-21 17:54:00,
2013-02-21 12:55:00,51.1,6.5,29.85,South,180,2.7,6.5,16,0.00,,,0.00,VWS V14.01,2013-02-21 17:55:00,
2013-02-21 12:59:00,51.6,6.9,29.85,South,180,3.6,3.6,16,0.00,,,0.00,VWS V14.01,2013-02-21 17:59:00,
2013-02-21 13:00:00,51.8,7.1,29.85,SSW,202,1.1,4.0,16,0.00,,,0.00,VWS V14.01,2013-02-21 18:00:00,
2013-02-21 13:01:00,52.0,7.2,29.85,SSW,202,2.5,6.9,16,0.00,,,0.00,VWS V14.01,2013-02-21 18:01:00,
2013-02-21 13:04:00,52.9,7.9,29.85,WSW,248,2.0,3.4,16,0.00,,,0.00,VWS V14.01,2013-02-21 18:04:00,
2013-02-21 13:05:00,53.1,8.1,29.85,WSW,248,3.4,11.0,16,0.00,,,0.00,VWS V14.01,2013-02-21 18:05:00,
2013-02-21 13:06:00,53.1,8.1,29.85,SW,225,5.4,5.4,16,0.00,,,0.00,VWS V14.01,2013-02-21 18:06:00,
2013-02-21 13:09:00,53.6,7.1,29.85,SW,225,2.5,3.4,15,0.00,,,0.00,VWS V14.01,2013-02-21 18:09:00,
2013-02-21 13:10:00,53.8,7.2,29.85,SW,225,3.1,5.4,15,0.00,,,0.00,VWS V14.01,2013-02-21 18:10:00,
2013-02-21 13:11:00,54.1,7.5,29.85,SW,225,0.9,1.6,15,0.00,,,0.00,VWS V14.01,2013-02-21 18:11:00,
2013-02-21 13:14:00,54.9,8.1,29.85,SW,225,2.9,6.3,15,0.00,,,0.00,VWS V14.01,2013-02-21 18:14:00,
2013-02-21 13:15:00,55.0,8.2,29.85,SW,225,3.6,3.6,15,0.00,,,0.00,VWS V14.01,2013-02-21 18:15:00,
2013-02-21 13:16:00,55.4,8.5,29.85,SW,225,1.6,4.7,15,0.00,,,0.00,VWS V14.01,2013-02-21 18:16:00,
2013-02-21 13:19:00,56.1,9.1,29.85,SSW,202,2.5,3.1,15,0.00,,,0.00,VWS V14.01,2013-02-21 18:19:00,
2013-02-21 13:20:00,55.9,9.0,29.85,SSW,202,9.6,9.6,15,0.00,,,0.00,VWS V14.01,2013-02-21 18:20:00,
2013-02-21 13:21:00,55.9,9.0,29.85,SSW,202,2.9,9.6,15,0.00,,,0.00,VWS V14.01,2013-02-21 18:21:00,
2013-02-21 13:25:00,55.4,8.5,29.85,South,180,2.0,6.9,15,0.00,,,0.00,VWS V14.01,2013-02-21 18:25:00,
2013-02-21 13:26:00,55.2,8.4,29.85,SSE,158,2.7,2.7,15,0.00,,,0.00,VWS V14.01,2013-02-21 18:26:00,
2013-02-21 13:30:00,54.5,7.8,29.85,SSW,202,3.6,7.4,15,0.00,,,0.00,VWS V14.01,2013-02-21 18:30:00,
2013-02-21 13:31:00,54.3,7.7,29.85,SSW,202,2.2,4.3,15,0.00,,,0.00,VWS V14.01,2013-02-21 18:31:00,
2013-02-21 13:35:00,54.7,8.0,29.85,SSW,202,2.0,3.6,15,0.00,,,0.00,VWS V14.01,2013-02-21 18:35:00,
2013-02-21 13:36:00,55.0,8.2,29.85,SSW,202,0.0,2.7,15,0.00,,,0.00,VWS V14.01,2013-02-21 18:36:00,
2013-02-21 13:40:00,56.8,9.7,29.85,SSW,202,1.1,2.5,15,0.00,,,0.00,VWS V14.01,2013-02-21 18:40:00,
2013-02-21 13:41:00,57.2,8.4,29.85,SSW,202,1.3,2.9,14,0.00,,,0.00,VWS V14.01,2013-02-21 18:41:00,
2013-02-21 13:45:00,57.7,8.9,29.85,SSE,158,6.0,6.0,14,0.00,,,0.00,VWS V14.01,2013-02-21 18:45:00,
2013-02-21 13:46:00,57.4,8.6,29.85,South,180,7.2,7.2,14,0.00,,,0.00,VWS V14.01,2013-02-21 18:46:00,
2013-02-21 13:50:00,57.2,8.4,29.85,South,180,3.6,3.6,14,0.00,,,0.00,VWS V14.01,2013-02-21 18:50:00,
2013-02-21 13:51:00,57.2,8.4,29.85,South,180,2.7,3.6,14,0.00,,,0.00,VWS V14.01,2013-02-21 18:51:00,
2013-02-21 13:55:00,57.6,8.7,29.85,SSW,202,3.4,3.4,14,0.00,,,0.00,VWS V14.01,2013-02-21 18:55:00,
2013-02-21 13:56:00,57.6,8.7,29.85,SSW,202,4.0,4.3,14,0.00,,,0.00,VWS V14.01,2013-02-21 18:56:00,
2013-02-21 13:57:00,57.6,8.7,29.85,SSW,202,1.6,4.0,14,0.00,,,0.00,VWS V14.01,2013-02-21 18:57:00,
2013-02-21 14:00:00,58.1,9.2,29.85,SSW,202,3.6,3.6,14,0.00,,,0.00,VWS V14.01,2013-02-21 19:00:00,
2013-02-21 14:01:00,57.9,9.0,29.85,South,180,3.1,9.6,14,0.00,,,0.00,VWS V14.01,2013-02-21 19:01:00,
2013-02-21 14:02:00,57.6,8.7,29.85,SSW,202,4.0,4.9,14,0.00,,,0.00,VWS V14.01,2013-02-21 19:02:00,
2013-02-21 14:06:00,56.7,9.6,29.85,SSW,202,2.7,7.6,15,0.00,,,0.00,VWS V14.01,2013-02-21 19:06:00,
2013-02-21 14:07:00,56.5,9.4,29.85,SSE,158,1.6,7.6,15,0.00,,,0.00,VWS V14.01,2013-02-21 19:07:00,
2013-02-21 14:11:00,56.5,9.4,29.85,South,180,4.5,4.5,15,0.00,,,0.00,VWS V14.01,2013-02-21 19:11:00,
2013-02-21 14:12:00,56.5,9.4,29.85,SSW,202,2.2,4.5,15,0.00,,,0.00,VWS V14.01,2013-02-21 19:12:00,
2013-02-21 14:16:00,56.7,9.6,29.85,South,180,2.7,3.1,15,0.00,,,0.00,VWS V14.01,2013-02-21 19:16:00,
2013-02-21 14:17:00,56.7,9.6,29.85,South,180,2.9,2.9,15,0.00,,,0.00,VWS V14.01,2013-02-21 19:17:00,
2013-02-21 14:21:00,57.4,8.6,29.85,South,180,2.0,4.3,14,0.00,,,0.00,VWS V14.01,2013-02-21 19:21:00,
2013-02-21 14:22:00,57.4,8.6,29.85,South,180,4.5,4.5,14,0.00,,,0.00,VWS V14.01,2013-02-21 19:22:00,
2013-02-21 14:26:00,58.8,9.8,29.88,South,180,2.7,2.7,14,0.00,,,0.00,VWS V14.01,2013-02-21 19:26:00,
2013-02-21 14:27:00,58.8,9.8,29.88,South,180,1.6,2.7,14,0.00,,,0.00,VWS V14.01,2013-02-21 19:27:00,
2013-02-21 14:28:00,59.0,9.9,29.88,South,180,7.2,7.2,14,0.00,,,0.00,VWS V14.01,2013-02-21 19:28:00,
2013-02-21 14:31:00,59.4,10.2,29.88,SSW,202,3.1,3.1,14,0.00,,,0.00,VWS V14.01,2013-02-21 19:31:00,
2013-02-21 14:32:00,59.5,10.3,29.88,SSW,202,3.1,3.1,14,0.00,,,0.00,VWS V14.01,2013-02-21 19:32:00,
2013-02-21 14:33:00,59.7,10.5,29.88,SSW,202,2.5,2.5,14,0.00,,,0.00,VWS V14.01,2013-02-21 19:33:00,
2013-02-21 14:36:00,60.6,11.2,29.88,SSW,202,0.0,8.1,14,0.00,,,0.00,VWS V14.01,2013-02-21 19:36:00,
2013-02-21 14:37:00,60.6,11.2,29.88,SSW,202,0.0,8.1,14,0.00,,,0.00,VWS V14.01,2013-02-21 19:37:00,
2013-02-21 14:38:00,61.0,11.5,29.88,SSW,202,1.6,3.1,14,0.00,,,0.00,VWS V14.01,2013-02-21 19:38:00,
2013-02-21 14:41:00,62.2,12.5,29.88,SSW,202,4.9,4.9,14,0.00,,,0.00,VWS V14.01,2013-02-21 19:41:00,
2013-02-21 14:42:00,62.2,12.5,29.88,SSW,202,3.4,4.9,14,0.00,,,0.00,VWS V14.01,2013-02-21 19:42:00,
2013-02-21 14:43:00,62.4,12.6,29.88,SSW,202,0.9,3.8,14,0.00,,,0.00,VWS V14.01,2013-02-21 19:43:00,
2013-02-21 14:46:00,63.0,11.4,29.88,SW,225,3.1,6.3,13,0.00,,,0.00,VWS V14.01,2013-02-21 19:46:00,
2013-02-21 14:47:00,62.6,11.1,29.88,SW,225,3.1,6.3,13,0.00,,,0.00,VWS V14.01,2013-02-21 19:47:00,
2013-02-21 14:48:00,62.6,11.1,29.88,SSW,202,4.0,5.4,13,0.00,,,0.00,VWS V14.01,2013-02-21 19:48:00,
2013-02-21 14:51:00,62.2,12.5,29.88,SSW,202,1.3,1.3,14,0.00,,,0.00,VWS V14.01,2013-02-21 19:51:00,
2013-02-21 14:52:00,62.4,12.6,29.88,SSW,202,3.1,3.1,14,0.00,,,0.00,VWS V14.01,2013-02-21 19:52:00,
2013-02-21 14:53:00,62.4,12.6,29.88,SSW,202,7.6,7.6,14,0.00,,,0.00,VWS V14.01,2013-02-21 19:53:00,
2013-02-21 14:57:00,62.4,12.6,29.88,SSW,202,1.6,1.6,14,0.00,,,0.00,VWS V14.01,2013-02-21 19:57:00,
2013-02-21 14:58:00,62.4,12.6,29.88,SSW,202,6.9,6.9,14,0.00,,,0.00,VWS V14.01,2013-02-21 19:58:00,
2013-02-21 15:02:00,61.5,11.9,29.88,SW,225,2.9,5.8,14,0.00,,,0.00,VWS V14.01,2013-02-21 20:02:00,
2013-02-21 15:03:00,61.5,11.9,29.88,SW,225,0.0,2.5,14,0.00,,,0.00,VWS V14.01,2013-02-21 20:03:00,
2013-02-21 15:07:00,62.4,12.6,29.88,SW,225,0.0,4.5,14,0.00,,,0.00,VWS V14.01,2013-02-21 20:07:00,
2013-02-21 15:08:00,63.0,11.4,29.88,SSW,202,3.6,3.6,13,0.00,,,0.00,VWS V14.01,2013-02-21 20:08:00,
2013-02-21 15:09:00,63.1,11.5,29.88,SSW,202,3.6,3.6,13,0.00,,,0.00,VWS V14.01,2013-02-21 20:09:00,
2013-02-21 15:12:00,63.5,11.8,29.88,WSW,248,2.9,9.4,13,0.00,,,0.00,VWS V14.01,2013-02-21 20:12:00,
2013-02-21 15:13:00,63.7,11.9,29.88,WSW,248,4.0,4.0,13,0.00,,,0.00,VWS V14.01,2013-02-21 20:13:00,
2013-02-21 15:14:00,63.7,11.9,29.88,WSW,248,1.6,5.8,13,0.00,,,0.00,VWS V14.01,2013-02-21 20:14:00,
2013-02-21 15:17:00,63.9,12.1,29.88,WSW,248,2.7,5.8,13,0.00,,,0.00,VWS V14.01,2013-02-21 20:17:00,
2013-02-21 15:18:00,63.9,12.1,29.88,WSW,248,2.9,2.9,13,0.00,,,0.00,VWS V14.01,2013-02-21 20:18:00,
2013-02-21 15:19:00,63.9,12.1,29.88,WSW,248,0.0,2.9,13,0.00,,,0.00,VWS V14.01,2013-02-21 20:19:00,
2013-02-21 15:22:00,63.9,12.1,29.88,SSW,202,2.2,2.5,13,0.00,,,0.00,VWS V14.01,2013-02-21 20:22:00,
2013-02-21 15:23:00,63.9,12.1,29.88,South,180,2.0,2.0,13,0.00,,,0.00,VWS V14.01,2013-02-21 20:23:00,
2013-02-21 15:24:00,63.9,12.1,29.88,South,180,3.4,3.4,13,0.00,,,0.00,VWS V14.01,2013-02-21 20:24:00,
2013-02-21 15:27:00,64.0,12.2,29.88,SSE,158,7.6,7.6,13,0.00,,,0.00,VWS V14.01,2013-02-21 20:27:00,
2013-02-21 15:29:00,63.9,12.1,29.88,South,180,0.0,4.0,13,0.00,,,0.00,VWS V14.01,2013-02-21 20:29:00,
2013-02-21 15:32:00,63.5,11.8,29.88,SSW,202,3.8,4.5,13,0.00,,,0.00,VWS V14.01,2013-02-21 20:32:00,
2013-02-21 15:34:00,63.1,11.5,29.88,SSW,202,1.3,1.3,13,0.00,,,0.00,VWS V14.01,2013-02-21 20:34:00,
2013-02-21 15:37:00,62.8,11.2,29.88,SSW,202,3.4,3.4,13,0.00,,,0.00,VWS V14.01,2013-02-21 20:37:00,
2013-02-21 15:38:00,63.0,11.4,29.88,SSW,202,0.0,3.4,13,0.00,,,0.00,VWS V14.01,2013-02-21 20:38:00,
2013-02-21 15:39:00,63.0,11.4,29.88,SSW,202,4.9,4.9,13,0.00,,,0.00,VWS V14.01,2013-02-21 20:39:00,
2013-02-21 15:40:00,62.8,11.2,29.88,SSW,202,0.9,7.6,13,0.00,,,0.00,VWS V14.01,2013-02-21 20:40:00,
2013-02-21 15:42:00,63.0,11.4,29.88,SSW,202,5.6,5.6,13,0.00,,,0.00,VWS V14.01,2013-02-21 20:42:00,
2013-02-21 15:43:00,63.0,11.4,29.88,SSW,202,1.3,5.6,13,0.00,,,0.00,VWS V14.01,2013-02-21 20:43:00,
2013-02-21 15:44:00,63.0,11.4,29.88,SSW,202,0.0,2.5,13,0.00,,,0.00,VWS V14.01,2013-02-21 20:44:00,
2013-02-21 15:45:00,63.0,11.4,29.88,SSW,202,1.6,2.9,13,0.00,,,0.00,VWS V14.01,2013-02-21 20:45:00,
2013-02-21 15:47:00,63.0,11.4,29.88,SSW,202,4.0,4.0,13,0.00,,,0.00,VWS V14.01,2013-02-21 20:47:00,
2013-02-21 15:48:00,63.1,11.5,29.88,SSW,202,3.6,5.8,13,0.00,,,0.00,VWS V14.01,2013-02-21 20:48:00,
2013-02-21 15:49:00,63.1,11.5,29.88,SSW,202,2.0,2.0,13,0.00,,,0.00,VWS V14.01,2013-02-21 20:49:00,
2013-02-21 15:50:00,63.5,11.8,29.88,South,180,4.9,4.9,13,0.00,,,0.00,VWS V14.01,2013-02-21 20:50:00,
2013-02-21 15:52:00,63.1,11.5,29.88,SSW,202,2.9,4.0,13,0.00,,,0.00,VWS V14.01,2013-02-21 20:52:00,
2013-02-21 15:53:00,63.1,11.5,29.88,SSW,202,2.7,4.0,13,0.00,,,0.00,VWS V14.01,2013-02-21 20:53:00,
2013-02-21 15:54:00,63.1,11.5,29.88,SSW,202,2.9,2.9,13,0.00,,,0.00,VWS V14.01,2013-02-21 20:54:00,
2013-02-21 15:56:00,63.0,11.4,29.88,SSW,202,2.2,3.8,13,0.00,,,0.00,VWS V14.01,2013-02-21 20:56:00,
2013-02-21 15:58:00,62.8,11.2,29.88,SSW,202,2.7,10.7,13,0.00,,,0.00,VWS V14.01,2013-02-21 20:58:00,
2013-02-21 15:59:00,62.8,11.2,29.88,SSW,202,3.1,3.1,13,0.00,,,0.00,VWS V14.01,2013-02-21 20:59:00,
2013-02-21 16:01:00,62.6,11.1,29.88,SSW,202,1.3,5.6,13,0.00,,,0.00,VWS V14.01,2013-02-21 21:01:00,
2013-02-21 16:03:00,62.6,11.1,29.88,SSW,202,6.3,6.3,13,0.00,,,0.00,VWS V14.01,2013-02-21 21:03:00,
2013-02-21 16:04:00,62.6,11.1,29.88,SSW,202,0.0,5.8,13,0.00,,,0.00,VWS V14.01,2013-02-21 21:04:00,
2013-02-21 16:06:00,62.6,11.1,29.88,SSW,202,3.8,5.4,13,0.00,,,0.00,VWS V14.01,2013-02-21 21:06:00,
2013-02-21 16:08:00,62.6,11.1,29.88,SSW,202,0.0,1.1,13,0.00,,,0.00,VWS V14.01,2013-02-21 21:08:00,
2013-02-21 16:09:00,62.6,11.1,29.88,SSW,202,3.4,3.4,13,0.00,,,0.00,VWS V14.01,2013-02-21 21:09:00,
2013-02-21 16:11:00,62.6,11.1,29.88,SSW,202,1.1,2.0,13,0.00,,,0.00,VWS V14.01,2013-02-21 21:11:00,
2013-02-21 16:13:00,62.6,11.1,29.88,SSW,202,3.6,7.6,13,0.00,,,0.00,VWS V14.01,2013-02-21 21:13:00,
2013-02-21 16:14:00,62.2,12.5,29.88,SSW,202,2.9,3.1,14,0.00,,,0.00,VWS V14.01,2013-02-21 21:14:00,
2013-02-21 16:17:00,61.9,12.2,29.88,SSW,202,2.2,2.2,14,0.00,,,0.00,VWS V14.01,2013-02-21 21:17:00,
2013-02-21 16:18:00,61.9,12.2,29.88,SSW,202,1.3,6.5,14,0.00,,,0.00,VWS V14.01,2013-02-21 21:18:00,
2013-02-21 16:19:00,61.9,12.2,29.88,SSW,202,1.1,5.6,14,0.00,,,0.00,VWS V14.01,2013-02-21 21:19:00,
2013-02-21 16:22:00,61.3,11.8,29.88,SSW,202,1.6,5.6,14,0.00,,,0.00,VWS V14.01,2013-02-21 21:22:00,
2013-02-21 16:23:00,61.0,11.5,29.88,SSW,202,1.6,5.4,14,0.00,,,0.00,VWS V14.01,2013-02-21 21:23:00,
2013-02-21 16:24:00,60.6,11.2,29.88,SSW,202,3.4,3.4,14,0.00,,,0.00,VWS V14.01,2013-02-21 21:24:00,
2013-02-21 16:27:00,60.3,10.9,29.88,SSW,202,1.6,3.8,14,0.00,,,0.00,VWS V14.01,2013-02-21 21:27:00,
2013-02-21 16:28:00,60.3,10.9,29.88,SSW,202,2.5,3.1,14,0.00,,,0.00,VWS V14.01,2013-02-21 21:28:00,
2013-02-21 16:29:00,60.1,10.8,29.88,SSW,202,3.8,3.8,14,0.00,,,0.00,VWS V14.01,2013-02-21 21:29:00,
2013-02-21 16:32:00,60.1,10.8,29.88,SSW,202,2.0,3.4,14,0.00,,,0.00,VWS V14.01,2013-02-21 21:32:00,
2013-02-21 16:33:00,60.1,10.8,29.88,SSW,202,4.0,7.4,14,0.00,,,0.00,VWS V14.01,2013-02-21 21:33:00,
2013-02-21 16:34:00,60.1,10.8,29.88,SSW,202,2.9,4.0,14,0.00,,,0.00,VWS V14.01,2013-02-21 21:34:00,
2013-02-21 16:37:00,59.9,10.6,29.88,SSW,202,2.7,2.7,14,0.00,,,0.00,VWS V14.01,2013-02-21 21:37:00,
2013-02-21 16:38:00,59.9,10.6,29.88,SSW,202,2.0,2.7,14,0.00,,,0.00,VWS V14.01,2013-02-21 21:38:00,
2013-02-21 16:39:00,59.9,10.6,29.91,SSW,202,5.6,5.6,14,0.00,,,0.00,VWS V14.01,2013-02-21 21:39:00,
2013-02-21 16:40:00,59.9,10.6,29.91,SSW,202,1.3,5.6,14,0.00,,,0.00,VWS V14.01,2013-02-21 21:40:00,
2013-02-21 16:42:00,59.7,10.5,29.91,SSW,202,0.0,1.1,14,0.00,,,0.00,VWS V14.01,2013-02-21 21:42:00,
2013-02-21 16:43:00,59.7,10.5,29.91,SSW,202,1.3,1.3,14,0.00,,,0.00,VWS V14.01,2013-02-21 21:43:00,
2013-02-21 16:44:00,59.5,10.3,29.91,SSW,202,1.1,3.1,14,0.00,,,0.00,VWS V14.01,2013-02-21 21:44:00,
2013-02-21 16:45:00,59.5,10.3,29.91,SSW,202,3.4,3.4,14,0.00,,,0.00,VWS V14.01,2013-02-21 21:45:00,
2013-02-21 16:48:00,58.8,9.8,29.91,South,180,4.7,4.7,14,0.00,,,0.00,VWS V14.01,2013-02-21 21:48:00,
2013-02-21 16:49:00,58.5,9.5,29.91,South,180,3.6,3.6,14,0.00,,,0.00,VWS V14.01,2013-02-21 21:49:00,
2013-02-21 16:50:00,58.3,9.3,29.91,SSW,202,7.4,7.4,14,0.00,,,0.00,VWS V14.01,2013-02-21 21:50:00,
2013-02-21 16:53:00,56.8,9.7,29.91,South,180,4.0,4.0,15,0.00,,,0.00,VWS V14.01,2013-02-21 21:53:00,
2013-02-21 16:54:00,56.7,9.6,29.91,SSW,202,4.0,4.0,15,0.00,,,0.00,VWS V14.01,2013-02-21 21:54:00,
2013-02-21 16:55:00,56.3,9.3,29.91,SSW,202,1.1,4.0,15,0.00,,,0.00,VWS V14.01,2013-02-21 21:55:00,
2013-02-21 16:58:00,54.9,8.1,29.91,SSW,202,4.9,4.9,15,0.00,,,0.00,VWS V14.01,2013-02-21 21:58:00,
2013-02-21 16:59:00,54.5,7.8,29.91,SSW,202,2.2,4.9,15,0.00,,,0.00,VWS V14.01,2013-02-21 21:59:00,
2013-02-21 17:00:00,54.1,7.5,29.91,SSW,202,2.7,3.8,15,0.00,,,0.00,VWS V14.01,2013-02-21 22:00:00,
2013-02-21 17:03:00,52.7,3.2,29.91,SSW,202,1.3,4.7,13,0.00,,,0.00,VWS V14.01,2013-02-21 22:03:00,
2013-02-21 17:04:00,52.0,2.7,29.91,SSW,202,1.3,6.5,13,0.00,,,0.00,VWS V14.01,2013-02-21 22:04:00,
2013-02-21 17:05:00,51.4,3.8,29.91,SSW,202,2.9,4.0,14,0.00,,,0.00,VWS V14.01,2013-02-21 22:05:00,
2013-02-21 17:09:00,49.8,2.5,29.91,SSW,202,1.6,2.9,14,0.00,,,0.00,VWS V14.01,2013-02-21 22:09:00,
2013-02-21 17:10:00,49.1,2.0,29.91,SSE,158,1.3,9.6,14,0.00,,,0.00,VWS V14.01,2013-02-21 22:10:00,
2013-02-21 17:14:00,47.5,0.7,29.91,South,180,1.3,4.0,14,0.00,,,0.00,VWS V14.01,2013-02-21 22:14:00,
2013-02-21 17:15:00,47.3,0.5,29.91,South,180,5.4,5.4,14,0.00,,,0.00,VWS V14.01,2013-02-21 22:15:00,
2013-02-21 17:19:00,45.9,0.8,29.91,SSW,202,3.4,3.4,15,0.00,,,0.00,VWS V14.01,2013-02-21 22:19:00,
2013-02-21 17:20:00,45.7,0.7,29.91,SSW,202,4.5,4.5,15,0.00,,,0.00,VWS V14.01,2013-02-21 22:20:00,
2013-02-21 17:24:00,44.8,0.0,29.91,SSW,202,0.0,3.1,15,0.00,,,0.00,VWS V14.01,2013-02-21 22:24:00,
2013-02-21 17:25:00,44.6,-0.2,29.91,SSW,202,3.8,3.8,15,0.00,,,0.00,VWS V14.01,2013-02-21 22:25:00,
2013-02-21 17:29:00,43.7,-0.9,29.91,SSW,202,3.6,3.6,15,0.00,,,0.00,VWS V14.01,2013-02-21 22:29:00,
2013-02-21 17:30:00,43.5,-1.1,29.91,SSW,202,2.7,3.6,15,0.00,,,0.00,VWS V14.01,2013-02-21 22:30:00,
2013-02-21 17:34:00,42.3,-0.7,29.91,SSW,202,2.0,5.4,16,0.00,,,0.00,VWS V14.01,2013-02-21 22:34:00,
2013-02-21 17:35:00,42.1,-0.9,29.91,SSW,202,0.9,3.6,16,0.00,,,0.00,VWS V14.01,2013-02-21 22:35:00,
2013-02-21 17:39:00,41.4,-1.5,29.91,South,180,1.3,1.3,16,0.00,,,0.00,VWS V14.01,2013-02-21 22:39:00,
2013-02-21 17:40:00,41.2,-1.6,29.91,South,180,1.6,1.6,16,0.00,,,0.00,VWS V14.01,2013-02-21 22:40:00,
2013-02-21 17:44:00,40.6,-2.0,29.91,SSW,202,1.1,1.1,16,0.00,,,0.00,VWS V14.01,2013-02-21 22:44:00,
2013-02-21 17:45:00,40.6,-2.0,29.91,SSW,202,3.4,3.4,16,0.00,,,0.00,VWS V14.01,2013-02-21 22:45:00,
2013-02-21 17:46:00,40.6,-2.0,29.91,SSW,202,2.9,3.4,16,0.00,,,0.00,VWS V14.01,2013-02-21 22:46:00,
2013-02-21 17:49:00,40.1,-2.5,29.91,South,180,1.1,4.9,16,0.00,,,0.00,VWS V14.01,2013-02-21 22:49:00,
2013-02-21 17:50:00,39.9,-2.6,29.91,South,180,1.3,3.8,16,0.00,,,0.00,VWS V14.01,2013-02-21 22:50:00,
2013-02-21 17:51:00,39.9,-2.6,29.91,South,180,1.3,3.4,16,0.00,,,0.00,VWS V14.01,2013-02-21 22:51:00,
2013-02-21 17:54:00,39.6,-2.9,29.91,South,180,0.0,0.0,16,0.00,,,0.00,VWS V14.01,2013-02-21 22:54:00,
2013-02-21 17:55:00,39.4,-3.1,29.91,South,180,3.1,3.6,16,0.00,,,0.00,VWS V14.01,2013-02-21 22:55:00,
2013-02-21 17:56:00,39.4,-3.1,29.91,South,180,3.6,3.6,16,0.00,,,0.00,VWS V14.01,2013-02-21 22:56:00,
2013-02-21 17:59:00,38.8,-3.5,29.91,South,180,0.0,0.0,16,0.00,,,0.00,VWS V14.01,2013-02-21 22:59:00,
2013-02-21 18:00:00,38.8,-3.5,29.91,South,180,6.0,6.0,16,0.00,,,0.00,VWS V14.01,2013-02-21 23:00:00,
2013-02-21 18:01:00,38.8,-3.5,29.91,South,180,3.1,6.0,16,0.00,,,0.00,VWS V14.01,2013-02-21 23:01:00,
2013-02-21 18:04:00,38.5,-3.8,29.91,South,180,4.0,4.0,16,0.00,,,0.00,VWS V14.01,2013-02-21 23:04:00,
2013-02-21 18:05:00,38.3,-4.0,29.91,South,180,2.0,2.0,16,0.00,,,0.00,VWS V14.01,2013-02-21 23:05:00,
2013-02-21 18:06:00,38.3,-4.0,29.91,South,180,0.9,2.0,16,0.00,,,0.00,VWS V14.01,2013-02-21 23:06:00,
2013-02-21 18:09:00,37.9,-4.2,29.94,South,180,1.6,1.6,16,0.00,,,0.00,VWS V14.01,2013-02-21 23:09:00,
2013-02-21 18:10:00,37.9,-4.2,29.94,South,180,2.0,2.2,16,0.00,,,0.00,VWS V14.01,2013-02-21 23:10:00,
2013-02-21 18:11:00,37.8,-4.4,29.94,South,180,2.5,2.5,16,0.00,,,0.00,VWS V14.01,2013-02-21 23:11:00,
2013-02-21 18:14:00,37.4,-4.7,29.94,South,180,1.1,1.1,16,0.00,,,0.00,VWS V14.01,2013-02-21 23:14:00,
2013-02-21 18:15:00,37.4,-4.7,29.94,South,180,0.9,1.6,16,0.00,,,0.00,VWS V14.01,2013-02-21 23:15:00,
2013-02-21 18:16:00,37.4,-4.7,29.94,South,180,0.0,1.6,16,0.00,,,0.00,VWS V14.01,2013-02-21 23:16:00,
2013-02-21 18:20:00,36.9,-3.9,29.94,South,180,0.9,1.1,17,0.00,,,0.00,VWS V14.01,2013-02-21 23:20:00,
2013-02-21 18:21:00,36.7,-4.0,29.94,South,180,4.7,4.7,17,0.00,,,0.00,VWS V14.01,2013-02-21 23:21:00,
2013-02-21 18:25:00,36.3,-4.3,29.94,SSW,202,2.9,3.4,17,0.00,,,0.00,VWS V14.01,2013-02-21 23:25:00,
2013-02-21 18:26:00,36.3,-4.3,29.94,SSW,202,3.4,3.4,17,0.00,,,0.00,VWS V14.01,2013-02-21 23:26:00,
2013-02-21 18:30:00,36.1,-4.5,29.94,SSW,202,0.9,2.9,17,0.00,,,0.00,VWS V14.01,2013-02-21 23:30:00,
2013-02-21 18:31:00,36.1,-4.5,29.94,SSW,202,1.6,3.6,17,0.00,,,0.00,VWS V14.01,2013-02-21 23:31:00,
2013-02-21 18:35:00,35.8,-4.8,29.94,SSW,202,5.4,5.4,17,0.00,,,0.00,VWS V14.01,2013-02-21 23:35:00,
2013-02-21 18:36:00,35.8,-4.8,29.94,SSW,202,0.0,5.4,17,0.00,,,0.00,VWS V14.01,2013-02-21 23:36:00,
2013-02-21 18:40:00,35.8,-4.8,29.94,SSW,202,2.2,6.5,17,0.00,,,0.00,VWS V14.01,2013-02-21 23:40:00,
2013-02-21 18:41:00,35.6,-4.9,29.94,SSW,202,2.0,4.9,17,0.00,,,0.00,VWS V14.01,2013-02-21 23:41:00,
2013-02-21 18:42:00,35.6,-4.9,29.94,SSW,202,3.1,3.1,17,0.00,,,0.00,VWS V14.01,2013-02-21 23:42:00,
2013-02-21 18:45:00,35.6,-4.9,29.94,SSW,202,0.9,3.8,17,0.00,,,0.00,VWS V14.01,2013-02-21 23:45:00,
2013-02-21 18:46:00,35.4,-5.1,29.94,SSW,202,4.9,5.6,17,0.00,,,0.00,VWS V14.01,2013-02-21 23:46:00,
2013-02-21 18:47:00,35.4,-5.1,29.94,SSW,202,1.3,7.4,17,0.00,,,0.00,VWS V14.01,2013-02-21 23:47:00,
2013-02-21 18:50:00,35.2,-5.2,29.94,SSW,202,2.5,3.6,17,0.00,,,0.00,VWS V14.01,2013-02-21 23:50:00,
2013-02-21 18:51:00,35.1,-5.3,29.94,SSW,202,0.9,2.5,17,0.00,,,0.00,VWS V14.01,2013-02-21 23:51:00,
2013-02-21 18:52:00,35.1,-5.3,29.94,SSW,202,3.6,3.6,17,0.00,,,0.00,VWS V14.01,2013-02-21 23:52:00,
2013-02-21 18:55:00,35.1,-5.3,29.97,SSW,202,1.6,2.5,17,0.00,,,0.00,VWS V14.01,2013-02-21 23:55:00,
2013-02-21 18:56:00,34.9,-5.5,29.97,SSW,202,1.1,1.1,17,0.00,,,0.00,VWS V14.01,2013-02-21 23:56:00,
2013-02-21 18:57:00,34.9,-5.5,29.97,SSW,202,4.3,4.3,17,0.00,,,0.00,VWS V14.01,2013-02-21 23:57:00,
2013-02-21 19:00:00,34.9,-5.5,29.97,SSW,202,1.1,1.1,17,0.00,,,0.00,VWS V14.01,2013-02-22 00:00:00,
2013-02-21 19:01:00,34.7,-5.6,29.97,SSW,202,2.2,2.2,17,0.00,,,0.00,VWS V14.01,2013-02-22 00:01:00,
2013-02-21 19:02:00,34.7,-5.6,29.97,SSW,202,2.9,4.0,17,0.00,,,0.00,VWS V14.01,2013-02-22 00:02:00,
2013-02-21 19:05:00,34.5,-5.8,29.97,SSW,202,0.0,1.6,17,0.00,,,0.00,VWS V14.01,2013-02-22 00:05:00,
2013-02-21 19:06:00,34.3,-5.9,29.97,SSW,202,0.9,2.9,17,0.00,,,0.00,VWS V14.01,2013-02-22 00:06:00,
2013-02-21 19:07:00,34.3,-5.9,29.97,SSW,202,0.0,3.1,17,0.00,,,0.00,VWS V14.01,2013-02-22 00:07:00,
2013-02-21 19:10:00,34.2,-6.1,30.00,SSW,202,2.5,2.9,17,0.00,,,0.00,VWS V14.01,2013-02-22 00:10:00,
2013-02-21 19:11:00,34.2,-6.1,30.00,SSW,202,2.0,2.0,17,0.00,,,0.00,VWS V14.01,2013-02-22 00:11:00,
2013-02-21 19:12:00,34.0,-6.2,30.00,SSW,202,0.0,2.0,17,0.00,,,0.00,VWS V14.01,2013-02-22 00:12:00,
2013-02-21 19:15:00,34.0,-6.2,30.00,SSW,202,0.0,0.0,17,0.00,,,0.00,VWS V14.01,2013-02-22 00:15:00,
2013-02-21 19:16:00,33.8,-6.4,30.00,SSW,202,0.0,0.0,17,0.00,,,0.00,VWS V14.01,2013-02-22 00:16:00,
2013-02-21 19:17:00,33.8,-6.4,30.00,SSW,202,0.0,1.3,17,0.00,,,0.00,VWS V14.01,2013-02-22 00:17:00,
2013-02-21 19:20:00,33.8,-6.4,30.00,SSW,202,2.0,2.0,17,0.00,,,0.00,VWS V14.01,2013-02-22 00:20:00,
2013-02-21 19:21:00,33.8,-6.4,30.00,SSW,202,4.3,4.3,17,0.00,,,0.00,VWS V14.01,2013-02-22 00:21:00,
2013-02-21 19:22:00,33.8,-6.4,30.00,SSW,202,0.0,4.3,17,0.00,,,0.00,VWS V14.01,2013-02-22 00:22:00,
2013-02-21 19:25:00,33.6,-5.3,30.00,SSW,202,2.2,2.5,18,0.00,,,0.00,VWS V14.01,2013-02-22 00:25:00,
2013-02-21 19:26:00,33.4,-5.5,30.00,SSW,202,3.1,3.1,18,0.00,,,0.00,VWS V14.01,2013-02-22 00:26:00,
2013-02-21 19:27:00,33.4,-5.5,30.00,SSW,202,1.3,3.1,18,0.00,,,0.00,VWS V14.01,2013-02-22 00:27:00,
2013-02-21 19:30:00,33.3,-5.7,30.00,SSW,202,0.0,1.3,18,0.00,,,0.00,VWS V14.01,2013-02-22 00:30:00,
2013-02-21 19:32:00,33.3,-5.7,30.00,SSW,202,1.1,2.0,18,0.00,,,0.00,VWS V14.01,2013-02-22 00:32:00,
2013-02-21 19:35:00,33.1,-5.8,30.00,SSW,202,0.0,0.9,18,0.00,,,0.00,VWS V14.01,2013-02-22 00:35:00,
2013-02-21 19:37:00,33.1,-5.8,30.00,SSW,202,0.9,2.9,18,0.00,,,0.00,VWS V14.01,2013-02-22 00:37:00,
2013-02-21 19:40:00,33.1,-5.8,30.00,SSW,202,0.0,2.5,18,0.00,,,0.00,VWS V14.01,2013-02-22 00:40:00,
2013-02-21 19:42:00,33.1,-5.8,30.00,SSW,202,2.5,2.5,18,0.00,,,0.00,VWS V14.01,2013-02-22 00:42:00,
2013-02-21 19:43:00,33.1,-5.8,30.00,SSW,202,1.1,1.3,18,0.00,,,0.00,VWS V14.01,2013-02-22 00:43:00,
2013-02-21 19:45:00,33.1,-5.8,30.00,SSW,202,0.0,1.3,18,0.00,,,0.00,VWS V14.01,2013-02-22 00:45:00,
2013-02-21 19:47:00,33.1,-5.8,30.00,SSW,202,2.0,4.0,18,0.00,,,0.00,VWS V14.01,2013-02-22 00:47:00,
2013-02-21 19:48:00,33.1,-5.8,30.00,SSW,202,1.3,2.2,18,0.00,,,0.00,VWS V14.01,2013-02-22 00:48:00,
2013-02-21 19:50:00,32.9,-5.9,30.00,SSW,202,0.0,1.3,18,0.00,,,0.00,VWS V14.01,2013-02-22 00:50:00,
2013-02-21 19:52:00,32.9,-5.9,30.00,SSW,202,2.2,3.1,18,0.00,,,0.00,VWS V14.01,2013-02-22 00:52:00,
2013-02-21 19:53:00,32.9,-5.9,30.00,SSW,202,2.5,2.7,18,0.00,,,0.00,VWS V14.01,2013-02-22 00:53:00,
2013-02-21 19:56:00,32.7,-6.1,30.03,SSW,202,2.0,2.0,18,0.00,,,0.00,VWS V14.01,2013-02-22 00:56:00,
2013-02-21 19:57:00,32.7,-6.1,30.03,SSW,202,2.2,4.5,18,0.00,,,0.00,VWS V14.01,2013-02-22 00:57:00,
2013-02-21 19:58:00,32.7,-6.1,30.03,SSW,202,2.7,3.4,18,0.00,,,0.00,VWS V14.01,2013-02-22 00:58:00,
2013-02-21 20:01:00,32.5,-6.2,30.03,SSW,202,0.0,4.0,18,0.00,,,0.00,VWS V14.01,2013-02-22 01:01:00,
2013-02-21 20:02:00,32.5,-6.2,30.03,SSW,202,1.3,1.6,18,0.00,,,0.00,VWS V14.01,2013-02-22 01:02:00,
2013-02-21 20:03:00,32.5,-6.2,30.03,SSW,202,0.0,1.3,18,0.00,,,0.00,VWS V14.01,2013-02-22 01:03:00,
2013-02-21 20:06:00,32.5,-6.2,30.03,SSW,202,3.4,3.4,18,0.00,,,0.00,VWS V14.01,2013-02-22 01:06:00,
2013-02-21 20:07:00,32.5,-6.2,30.03,South,180,0.0,7.4,18,0.00,,,0.00,VWS V14.01,2013-02-22 01:07:00,
2013-02-21 20:08:00,32.5,-6.2,30.03,South,180,0.0,1.1,18,0.00,,,0.00,VWS V14.01,2013-02-22 01:08:00,
2013-02-21 20:11:00,32.5,-6.2,30.03,South,180,0.0,2.0,18,0.00,,,0.00,VWS V14.01,2013-02-22 01:11:00,
2013-02-21 20:12:00,32.5,-6.2,30.03,South,180,0.0,2.7,18,0.00,,,0.00,VWS V14.01,2013-02-22 01:12:00,
2013-02-21 20:13:00,32.5,-6.2,30.03,South,180,1.1,1.6,18,0.00,,,0.00,VWS V14.01,2013-02-22 01:13:00,
2013-02-21 20:16:00,32.4,-6.4,30.03,South,180,0.0,2.7,18,0.00,,,0.00,VWS V14.01,2013-02-22 01:16:00,
2013-02-21 20:17:00,32.4,-6.4,30.03,South,180,0.0,0.0,18,0.00,,,0.00,VWS V14.01,2013-02-22 01:17:00,
2013-02-21 20:18:00,32.4,-6.4,30.03,South,180,1.1,1.1,18,0.00,,,0.00,VWS V14.01,2013-02-22 01:18:00,
2013-02-21 20:21:00,32.4,-6.4,30.03,South,180,0.9,3.6,18,0.00,,,0.00,VWS V14.01,2013-02-22 01:21:00,
2013-02-21 20:22:00,32.4,-6.4,30.03,South,180,2.5,2.5,18,0.00,,,0.00,VWS V14.01,2013-02-22 01:22:00,
2013-02-21 20:23:00,32.2,-6.6,30.03,South,180,1.6,2.5,18,0.00,,,0.00,VWS V14.01,2013-02-22 01:23:00,
2013-02-21 20:26:00,32.2,-6.6,30.06,South,180,1.3,3.4,18,0.00,,,0.00,VWS V14.01,2013-02-22 01:26:00,
2013-02-21 20:27:00,32.2,-6.6,30.06,South,180,0.9,2.5,18,0.00,,,0.00,VWS V14.01,2013-02-22 01:27:00,
2013-02-21 20:28:00,32.2,-6.6,30.06,South,180,4.5,4.5,18,0.00,,,0.00,VWS V14.01,2013-02-22 01:28:00,
2013-02-21 20:31:00,32.2,-6.6,30.06,SSW,202,2.5,4.7,18,0.00,,,0.00,VWS V14.01,2013-02-22 01:31:00,
2013-02-21 20:32:00,32.2,-6.6,30.06,SSW,202,2.7,2.7,18,0.00,,,0.00,VWS V14.01,2013-02-22 01:32:00,
2013-02-21 20:33:00,32.2,-6.6,30.06,SSW,202,0.0,0.0,18,0.00,,,0.00,VWS V14.01,2013-02-22 01:33:00,
2013-02-21 20:36:00,32.2,-6.6,30.06,SSW,202,2.0,2.0,18,0.00,,,0.00,VWS V14.01,2013-02-22 01:36:00,
2013-02-21 20:37:00,32.2,-6.6,30.06,SSW,202,0.9,2.0,18,0.00,,,0.00,VWS V14.01,2013-02-22 01:37:00,
2013-02-21 20:38:00,32.0,-6.7,30.06,SSW,202,2.5,2.5,18,0.00,,,0.00,VWS V14.01,2013-02-22 01:38:00,
2013-02-21 20:41:00,32.0,-6.7,30.06,SSW,202,2.5,2.5,18,0.00,,,0.00,VWS V14.01,2013-02-22 01:41:00,
2013-02-21 20:42:00,32.0,-6.7,30.06,South,180,7.8,9.4,18,0.00,,,0.00,VWS V14.01,2013-02-22 01:42:00,
2013-02-21 20:43:00,32.0,-6.7,30.06,South,180,1.6,2.9,18,0.00,,,0.00,VWS V14.01,2013-02-22 01:43:00,
2013-02-21 20:44:00,32.0,-6.7,30.06,South,180,2.7,2.9,18,0.00,,,0.00,VWS V14.01,2013-02-22 01:44:00,
2013-02-21 20:46:00,32.0,-6.7,30.06,South,180,0.9,2.7,18,0.00,,,0.00,VWS V14.01,2013-02-22 01:46:00,
2013-02-21 20:48:00,32.0,-6.7,30.06,South,180,3.4,3.4,18,0.00,,,0.00,VWS V14.01,2013-02-22 01:48:00,
2013-02-21 20:49:00,32.0,-6.7,30.06,South,180,2.9,4.3,18,0.00,,,0.00,VWS V14.01,2013-02-22 01:49:00,
2013-02-21 20:51:00,31.8,-6.8,30.06,South,180,4.9,6.5,18,0.00,,,0.00,VWS V14.01,2013-02-22 01:51:00,
2013-02-21 20:53:00,31.8,-6.8,30.06,South,180,2.7,3.6,18,0.00,,,0.00,VWS V14.01,2013-02-22 01:53:00,
2013-02-21 20:54:00,31.8,-6.8,30.06,South,180,2.5,2.7,18,0.00,,,0.00,VWS V14.01,2013-02-22 01:54:00,
2013-02-21 20:57:00,31.6,-7.0,30.06,SSW,202,0.0,2.9,18,0.00,,,0.00,VWS V14.01,2013-02-22 01:57:00,
2013-02-21 20:58:00,31.6,-7.0,30.06,SSW,202,2.9,5.4,18,0.00,,,0.00,VWS V14.01,2013-02-22 01:58:00,
2013-02-21 20:59:00,31.6,-7.0,30.06,SSW,202,2.5,3.1,18,0.00,,,0.00,VWS V14.01,2013-02-22 01:59:00,
2013-02-21 21:02:00,31.5,-7.2,30.06,SSW,202,2.0,2.2,18,0.00,,,0.00,VWS V14.01,2013-02-22 02:02:00,
2013-02-21 21:03:00,31.5,-7.2,30.06,SSW,202,2.9,3.4,18,0.00,,,0.00,VWS V14.01,2013-02-22 02:03:00,
2013-02-21 21:04:00,31.3,-7.3,30.06,SSW,202,4.0,4.0,18,0.00,,,0.00,VWS V14.01,2013-02-22 02:04:00,
2013-02-21 21:07:00,31.3,-7.3,30.06,SSW,202,2.5,3.1,18,0.00,,,0.00,VWS V14.01,2013-02-22 02:07:00,
2013-02-21 21:08:00,31.3,-7.3,30.06,SSW,202,1.1,2.5,18,0.00,,,0.00,VWS V14.01,2013-02-22 02:08:00,
2013-02-21 21:09:00,31.3,-7.3,30.03,SSW,202,0.0,1.6,18,0.00,,,0.00,VWS V14.01,2013-02-22 02:09:00,
2013-02-21 21:12:00,31.1,-7.4,30.03,SSW,202,0.0,2.5,18,0.00,,,0.00,VWS V14.01,2013-02-22 02:12:00,
2013-02-21 21:13:00,31.1,-7.4,30.03,SSW,202,2.0,2.0,18,0.00,,,0.00,VWS V14.01,2013-02-22 02:13:00,
2013-02-21 21:14:00,31.1,-7.4,30.03,SSW,202,2.0,4.0,18,0.00,,,0.00,VWS V14.01,2013-02-22 02:14:00,
2013-02-21 21:17:00,30.9,-7.6,30.03,SSW,202,3.8,3.8,18,0.00,,,0.00,VWS V14.01,2013-02-22 02:17:00,
2013-02-21 21:18:00,30.9,-7.6,30.03,SSW,202,4.9,4.9,18,0.00,,,0.00,VWS V14.01,2013-02-22 02:18:00,
2013-02-21 21:19:00,30.9,-7.6,30.03,SSW,202,3.6,4.9,18,0.00,,,0.00,VWS V14.01,2013-02-22 02:19:00,
2013-02-21 21:22:00,30.9,-7.6,30.03,SSE,158,0.0,0.0,18,0.00,,,0.00,VWS V14.01,2013-02-22 02:22:00,
2013-02-21 21:23:00,30.7,-7.7,30.03,SSE,158,3.4,3.4,18,0.00,,,0.00,VWS V14.01,2013-02-22 02:23:00,
2013-02-21 21:24:00,30.7,-7.7,30.03,SSE,158,1.3,1.3,18,0.00,,,0.00,VWS V14.01,2013-02-22 02:24:00,
2013-02-21 21:27:00,30.7,-7.7,30.03,SSE,158,4.0,4.0,18,0.00,,,0.00,VWS V14.01,2013-02-22 02:27:00,
2013-02-21 21:28:00,30.7,-7.7,30.03,SSE,158,4.3,4.3,18,0.00,,,0.00,VWS V14.01,2013-02-22 02:28:00,
2013-02-21 21:29:00,30.7,-7.7,30.03,SSE,158,1.1,1.1,18,0.00,,,0.00,VWS V14.01,2013-02-22 02:29:00,
2013-02-21 21:33:00,30.6,-7.9,30.03,SSE,158,0.0,2.7,18,0.00,,,0.00,VWS V14.01,2013-02-22 02:33:00,
2013-02-21 21:34:00,30.6,-7.9,30.03,SSE,158,0.0,0.0,18,0.00,,,0.00,VWS V14.01,2013-02-22 02:34:00,
2013-02-21 21:38:00,30.4,-8.0,30.03,South,180,1.1,1.1,18,0.00,,,0.00,VWS V14.01,2013-02-22 02:38:00,
2013-02-21 21:39:00,30.4,-8.0,30.03,South,180,2.7,2.7,18,0.00,,,0.00,VWS V14.01,2013-02-22 02:39:00,
2013-02-21 21:40:00,30.2,-8.2,30.03,South,180,1.3,4.0,18,0.00,,,0.00,VWS V14.01,2013-02-22 02:40:00,
2013-02-21 21:43:00,30.2,-8.2,30.03,South,180,1.6,1.6,18,0.00,,,0.00,VWS V14.01,2013-02-22 02:43:00,
2013-02-21 21:44:00,30.0,-8.3,30.03,South,180,2.2,2.2,18,0.00,,,0.00,VWS V14.01,2013-02-22 02:44:00,
2013-02-21 21:45:00,30.0,-8.3,30.03,South,180,0.9,2.5,18,0.00,,,0.00,VWS V14.01,2013-02-22 02:45:00,
2013-02-21 21:49:00,29.8,-8.5,30.03,South,180,2.5,2.5,18,0.00,,,0.00,VWS V14.01,2013-02-22 02:49:00,
2013-02-21 21:50:00,29.8,-8.5,30.03,South,180,1.1,2.9,18,0.00,,,0.00,VWS V14.01,2013-02-22 02:50:00,
2013-02-21 21:54:00,29.7,-8.6,30.03,South,180,0.9,1.3,18,0.00,,,0.00,VWS V14.01,2013-02-22 02:54:00,
2013-02-21 21:55:00,29.7,-8.6,30.03,South,180,2.5,2.7,18,0.00,,,0.00,VWS V14.01,2013-02-22 02:55:00,
2013-02-21 21:59:00,29.5,-8.8,30.03,South,180,0.9,2.0,18,0.00,,,0.00,VWS V14.01,2013-02-22 02:59:00,
2013-02-21 22:00:00,29.5,-8.8,30.03,South,180,4.3,4.3,18,0.00,,,0.00,VWS V14.01,2013-02-22 03:00:00,
2013-02-21 22:04:00,29.5,-8.8,30.03,SSW,202,7.8,7.8,18,0.00,,,0.00,VWS V14.01,2013-02-22 03:04:00,
2013-02-21 22:05:00,29.5,-8.8,30.03,SSW,202,3.8,3.8,18,0.00,,,0.00,VWS V14.01,2013-02-22 03:05:00,
2013-02-21 22:09:00,29.5,-8.8,30.03,SSW,202,1.1,2.5,18,0.00,,,0.00,VWS V14.01,2013-02-22 03:09:00,
2013-02-21 22:10:00,29.5,-8.8,30.03,SSW,202,2.7,2.7,18,0.00,,,0.00,VWS V14.01,2013-02-22 03:10:00,
2013-02-21 22:14:00,29.3,-8.9,30.03,SSW,202,2.0,2.9,18,0.00,,,0.00,VWS V14.01,2013-02-22 03:14:00,
2013-02-21 22:15:00,29.3,-8.9,30.03,SSW,202,4.0,4.0,18,0.00,,,0.00,VWS V14.01,2013-02-22 03:15:00,
2013-02-21 22:19:00,29.1,-9.1,30.03,SSW,202,5.8,5.8,18,0.00,,,0.00,VWS V14.01,2013-02-22 03:19:00,
2013-02-21 22:20:00,29.1,-9.1,30.03,SSW,202,2.5,5.8,18,0.00,,,0.00,VWS V14.01,2013-02-22 03:20:00,
2013-02-21 22:24:00,28.9,-9.2,30.03,SSW,202,2.0,2.0,18,0.00,,,0.00,VWS V14.01,2013-02-22 03:24:00,
2013-02-21 22:25:00,28.9,-9.2,30.03,SSW,202,1.6,2.0,18,0.00,,,0.00,VWS V14.01,2013-02-22 03:25:00,
2013-02-21 22:29:00,28.8,-9.4,30.03,SSW,202,2.2,2.2,18,0.00,,,0.00,VWS V14.01,2013-02-22 03:29:00,
2013-02-21 22:30:00,28.8,-9.4,30.03,SSW,202,0.0,2.2,18,0.00,,,0.00,VWS V14.01,2013-02-22 03:30:00,
2013-02-21 22:34:00,28.8,-9.4,30.03,SSW,202,4.0,4.0,18,0.00,,,0.00,VWS V14.01,2013-02-22 03:34:00,
2013-02-21 22:35:00,28.8,-9.4,30.03,SSW,202,0.9,4.0,18,0.00,,,0.00,VWS V14.01,2013-02-22 03:35:00,
2013-02-21 22:39:00,28.6,-9.5,30.03,SSW,202,2.9,2.9,18,0.00,,,0.00,VWS V14.01,2013-02-22 03:39:00,
2013-02-21 22:40:00,28.6,-9.5,30.03,SSW,202,0.9,2.9,18,0.00,,,0.00,VWS V14.01,2013-02-22 03:40:00,
2013-02-21 22:44:00,28.4,-9.7,30.03,SSW,202,3.4,3.4,18,0.00,,,0.00,VWS V14.01,2013-02-22 03:44:00,
2013-02-21 22:45:00,28.4,-9.7,30.03,SSW,202,0.9,3.4,18,0.00,,,0.00,VWS V14.01,2013-02-22 03:45:00,
2013-02-21 22:49:00,28.4,-9.7,30.03,SSW,202,2.2,2.7,18,0.00,,,0.00,VWS V14.01,2013-02-22 03:49:00,
2013-02-21 22:50:00,28.4,-9.7,30.03,SSW,202,2.5,2.7,18,0.00,,,0.00,VWS V14.01,2013-02-22 03:50:00,
2013-02-21 22:54:00,28.2,-9.8,30.06,SSW,202,0.9,0.9,18,0.00,,,0.00,VWS V14.01,2013-02-22 03:54:00,
2013-02-21 22:55:00,28.2,-9.8,30.06,SSW,202,2.7,2.7,18,0.00,,,0.00,VWS V14.01,2013-02-22 03:55:00,
2013-02-21 22:56:00,28.2,-9.8,30.06,SSW,202,0.9,2.7,18,0.00,,,0.00,VWS V14.01,2013-02-22 03:56:00,
2013-02-21 22:59:00,28.2,-9.8,30.06,SSW,202,2.5,3.8,18,0.00,,,0.00,VWS V14.01,2013-02-22 03:59:00,
2013-02-21 23:00:00,28.2,-9.8,30.06,SSW,202,2.0,2.0,18,0.00,,,0.00,VWS V14.01,2013-02-22 04:00:00,
2013-02-21 23:01:00,28.2,-9.8,30.06,SSW,202,2.0,2.0,18,0.00,,,0.00,VWS V14.01,2013-02-22 04:01:00,
2013-02-21 23:05:00,28.0,-10.0,30.06,SSW,202,1.1,1.1,18,0.00,,,0.00,VWS V14.01,2013-02-22 04:05:00,
2013-02-21 23:06:00,28.0,-10.0,30.06,SSW,202,0.0,2.9,18,0.00,,,0.00,VWS V14.01,2013-02-22 04:06:00,
2013-02-21 23:10:00,27.9,-10.1,30.06,SSW,202,0.0,0.0,18,0.00,,,0.00,VWS V14.01,2013-02-22 04:10:00,
2013-02-21 23:11:00,27.9,-10.1,30.06,SSW,202,0.0,1.6,18,0.00,,,0.00,VWS V14.01,2013-02-22 04:11:00,
2013-02-21 23:15:00,27.9,-10.1,30.06,SSW,202,0.9,1.3,18,0.00,,,0.00,VWS V14.01,2013-02-22 04:15:00,
2013-02-21 23:16:00,27.9,-10.1,30.06,SSW,202,5.6,5.6,18,0.00,,,0.00,VWS V14.01,2013-02-22 04:16:00,
2013-02-21 23:20:00,27.9,-10.1,30.06,SSW,202,0.0,2.7,18,0.00,,,0.00,VWS V14.01,2013-02-22 04:20:00,
2013-02-21 23:21:00,27.9,-10.1,30.06,SSW,202,0.0,2.5,18,0.00,,,0.00,VWS V14.01,2013-02-22 04:21:00,
2013-02-21 23:25:00,27.9,-10.1,30.09,SSW,202,1.3,1.3,18,0.00,,,0.00,VWS V14.01,2013-02-22 04:25:00,
2013-02-21 23:26:00,27.9,-10.1,30.09,SSW,202,1.6,3.4,18,0.00,,,0.00,VWS V14.01,2013-02-22 04:26:00,
2013-02-21 23:30:00,27.7,-10.3,30.09,SSW,202,1.6,1.6,18,0.00,,,0.00,VWS V14.01,2013-02-22 04:30:00,
2013-02-21 23:31:00,27.7,-10.3,30.09,SSW,202,2.2,2.9,18,0.00,,,0.00,VWS V14.01,2013-02-22 04:31:00,
2013-02-21 23:32:00,27.7,-10.3,30.09,SSW,202,2.5,2.9,18,0.00,,,0.00,VWS V14.01,2013-02-22 04:32:00,
2013-02-21 23:35:00,27.7,-10.3,30.09,SSW,202,2.2,2.9,18,0.00,,,0.00,VWS V14.01,2013-02-22 04:35:00,
2013-02-21 23:36:00,27.7,-10.3,30.09,SSW,202,0.0,3.4,18,0.00,,,0.00,VWS V14.01,2013-02-22 04:36:00,
2013-02-21 23:37:00,27.7,-10.3,30.09,SSW,202,0.0,3.4,18,0.00,,,0.00,VWS V14.01,2013-02-22 04:37:00,
2013-02-21 23:40:00,27.7,-10.3,30.09,SSW,202,0.0,0.0,18,0.00,,,0.00,VWS V14.01,2013-02-22 04:40:00,
2013-02-21 23:42:00,27.5,-10.4,30.09,SSW,202,0.0,2.5,18,0.00,,,0.00,VWS V14.01,2013-02-22 04:42:00,
2013-02-21 23:45:00,27.5,-10.4,30.09,SSW,202,1.1,3.6,18,0.00,,,0.00,VWS V14.01,2013-02-22 04:45:00,
2013-02-21 23:47:00,27.5,-10.4,30.09,SSW,202,0.0,1.6,18,0.00,,,0.00,VWS V14.01,2013-02-22 04:47:00,
2013-02-21 23:51:00,27.5,-10.4,30.09,SSW,202,0.0,0.0,18,0.00,,,0.00,VWS V14.01,2013-02-22 04:51:00,
2013-02-21 23:52:00,27.3,-10.6,30.09,SSW,202,1.6,1.6,18,0.00,,,0.00,VWS V14.01,2013-02-22 04:52:00,
2013-02-21 23:56:00,27.3,-10.6,30.09,SSW,202,1.1,1.1,18,0.00,,,0.00,VWS V14.01,2013-02-22 04:56:00,
2013-02-21 23:57:00,27.3,-10.6,30.09,SSW,202,1.3,1.3,18,0.00,,,0.00,VWS V14.01,2013-02-22 04:57:00,